<?xml version='1.0' encoding='UTF-8'?><gpx version="1.1" creator="JPX - https://github.com/jenetics/jpx" xmlns="http://www.topografix.com/GPX/1/1"><trk><trkseg><trkpt lat="42.1086399" lon="12.8305961"><ele>809.9999999999999</ele><time>2026-03-28T14:09:58.487Z</time></trkpt><trkpt lat="42.1085768" lon="12.8306148"><ele>810.0</ele><time>2026-03-28T14:11:28.558Z</time></trkpt><trkpt lat="42.1085811" lon="12.8306425"><ele>810.0</ele><time>2026-03-28T14:16:10.539Z</time></trkpt><trkpt lat="42.1086501" lon="12.8306306"><ele>810.0</ele><time>2026-03-28T14:16:17.518Z</time></trkpt><trkpt lat="42.10873" lon="12.8305974"><ele>810.0</ele><time>2026-03-28T14:16:20.513Z</time></trkpt><trkpt lat="42.1088116" lon="12.8306028"><ele>809.9999999999999</ele><time>2026-03-28T14:16:24.532Z</time></trkpt><trkpt lat="42.1088704" lon="12.8306896"><ele>810.0</ele><time>2026-03-28T14:16:27.505Z</time></trkpt><trkpt lat="42.1089132" lon="12.8307755"><ele>810.0</ele><time>2026-03-28T14:16:29.512Z</time></trkpt><trkpt lat="42.1089627" lon="12.8308602"><ele>810.0</ele><time>2026-03-28T14:16:31.525Z</time></trkpt><trkpt lat="42.109013" lon="12.8309546"><ele>810.0</ele><time>2026-03-28T14:16:33.517Z</time></trkpt><trkpt lat="42.1090531" lon="12.8310413"><ele>810.0</ele><time>2026-03-28T14:16:35.519Z</time></trkpt><trkpt lat="42.1090959" lon="12.831119"><ele>810.0</ele><time>2026-03-28T14:16:37.544Z</time></trkpt><trkpt lat="42.1091285" lon="12.8312038"><ele>810.0</ele><time>2026-03-28T14:16:39.537Z</time></trkpt><trkpt lat="42.109163" lon="12.8312851"><ele>809.3333333333334</ele><time>2026-03-28T14:16:41.545Z</time></trkpt><trkpt lat="42.1091889" lon="12.8313739"><ele>808.6666666666667</ele><time>2026-03-28T14:16:43.542Z</time></trkpt><trkpt lat="42.1092094" lon="12.8314731"><ele>808.0</ele><time>2026-03-28T14:16:45.541Z</time></trkpt><trkpt lat="42.109234" lon="12.8315718"><ele>807.3333333333334</ele><time>2026-03-28T14:16:47.54Z</time></trkpt><trkpt lat="42.1092667" lon="12.8316567"><ele>806.6666666666667</ele><time>2026-03-28T14:16:49.551Z</time></trkpt><trkpt lat="42.1093175" lon="12.8317455"><ele>806.0</ele><time>2026-03-28T14:16:51.524Z</time></trkpt><trkpt lat="42.1093559" lon="12.8318315"><ele>805.6666666666667</ele><time>2026-03-28T14:16:54.554Z</time></trkpt><trkpt lat="42.109372" lon="12.8319301"><ele>805.3333333333334</ele><time>2026-03-28T14:16:57.515Z</time></trkpt><trkpt lat="42.1094186" lon="12.8320354"><ele>805.0</ele><time>2026-03-28T14:16:59.569Z</time></trkpt><trkpt lat="42.1094962" lon="12.8321494"><ele>804.6666666666667</ele><time>2026-03-28T14:17:01.53Z</time></trkpt><trkpt lat="42.1095383" lon="12.8322142"><ele>804.3333333333334</ele><time>2026-03-28T14:17:02.548Z</time></trkpt><trkpt lat="42.1095872" lon="12.8322882"><ele>804.0</ele><time>2026-03-28T14:17:03.522Z</time></trkpt><trkpt lat="42.1096352" lon="12.8323702"><ele>804.0</ele><time>2026-03-28T14:17:04.506Z</time></trkpt><trkpt lat="42.1096938" lon="12.8324643"><ele>804.0</ele><time>2026-03-28T14:17:05.527Z</time></trkpt><trkpt lat="42.1097469" lon="12.8325637"><ele>804.0</ele><time>2026-03-28T14:17:06.523Z</time></trkpt><trkpt lat="42.1097947" lon="12.8326674"><ele>804.0</ele><time>2026-03-28T14:17:07.539Z</time></trkpt><trkpt lat="42.1098375" lon="12.8327637"><ele>804.0</ele><time>2026-03-28T14:17:08.577Z</time></trkpt><trkpt lat="42.1098864" lon="12.8328556"><ele>804.0</ele><time>2026-03-28T14:17:09.547Z</time></trkpt><trkpt lat="42.1099417" lon="12.8329416"><ele>806.8000000000001</ele><time>2026-03-28T14:17:10.524Z</time></trkpt><trkpt lat="42.1100131" lon="12.833017"><ele>809.6</ele><time>2026-03-28T14:17:11.528Z</time></trkpt><trkpt lat="42.1100865" lon="12.8330923"><ele>812.4</ele><time>2026-03-28T14:17:12.516Z</time></trkpt><trkpt lat="42.1101566" lon="12.8331643"><ele>815.2</ele><time>2026-03-28T14:17:13.52Z</time></trkpt><trkpt lat="42.110226" lon="12.8332405"><ele>818.0</ele><time>2026-03-28T14:17:14.527Z</time></trkpt><trkpt lat="42.1102969" lon="12.8333197"><ele>818.0000000000001</ele><time>2026-03-28T14:17:15.529Z</time></trkpt><trkpt lat="42.1103669" lon="12.8334012"><ele>818.0</ele><time>2026-03-28T14:17:16.525Z</time></trkpt><trkpt lat="42.1104283" lon="12.8334878"><ele>818.0</ele><time>2026-03-28T14:17:17.529Z</time></trkpt><trkpt lat="42.1104772" lon="12.8335758"><ele>818.0</ele><time>2026-03-28T14:17:18.534Z</time></trkpt><trkpt lat="42.1105255" lon="12.8336666"><ele>818.0000000000001</ele><time>2026-03-28T14:17:19.64Z</time></trkpt><trkpt lat="42.1105761" lon="12.8337523"><ele>818.0</ele><time>2026-03-28T14:17:20.541Z</time></trkpt><trkpt lat="42.1106344" lon="12.8338358"><ele>818.6666666666667</ele><time>2026-03-28T14:17:21.61Z</time></trkpt><trkpt lat="42.1106999" lon="12.8339168"><ele>819.3333333333334</ele><time>2026-03-28T14:17:22.538Z</time></trkpt><trkpt lat="42.1107659" lon="12.8340065"><ele>820.0</ele><time>2026-03-28T14:17:23.546Z</time></trkpt><trkpt lat="42.1108307" lon="12.8340986"><ele>820.6666666666667</ele><time>2026-03-28T14:17:24.534Z</time></trkpt><trkpt lat="42.1108907" lon="12.8341909"><ele>821.3333333333334</ele><time>2026-03-28T14:17:25.554Z</time></trkpt><trkpt lat="42.1109436" lon="12.8342746"><ele>822.0</ele><time>2026-03-28T14:17:26.521Z</time></trkpt><trkpt lat="42.111" lon="12.8343524"><ele>823.8</ele><time>2026-03-28T14:17:27.55Z</time></trkpt><trkpt lat="42.1110522" lon="12.8344289"><ele>825.6</ele><time>2026-03-28T14:17:28.525Z</time></trkpt><trkpt lat="42.1111028" lon="12.8345151"><ele>827.4</ele><time>2026-03-28T14:17:29.513Z</time></trkpt><trkpt lat="42.1111533" lon="12.8346099"><ele>829.1999999999999</ele><time>2026-03-28T14:17:30.528Z</time></trkpt><trkpt lat="42.111212" lon="12.8346988"><ele>831.0</ele><time>2026-03-28T14:17:31.633Z</time></trkpt><trkpt lat="42.1113501" lon="12.834878"><ele>831.0</ele><time>2026-03-28T14:17:33.514Z</time></trkpt><trkpt lat="42.111436" lon="12.8349764"><ele>831.0</ele><time>2026-03-28T14:17:34.518Z</time></trkpt><trkpt lat="42.1115258" lon="12.8350779"><ele>831.0</ele><time>2026-03-28T14:17:35.515Z</time></trkpt><trkpt lat="42.1116358" lon="12.8351795"><ele>831.0</ele><time>2026-03-28T14:17:36.526Z</time></trkpt><trkpt lat="42.1117596" lon="12.8352698"><ele>836.25</ele><time>2026-03-28T14:17:37.526Z</time></trkpt><trkpt lat="42.111878" lon="12.8353523"><ele>841.5</ele><time>2026-03-28T14:17:38.508Z</time></trkpt><trkpt lat="42.1119957" lon="12.8354234"><ele>846.75</ele><time>2026-03-28T14:17:39.513Z</time></trkpt><trkpt lat="42.1121072" lon="12.8354894"><ele>852.0</ele><time>2026-03-28T14:17:40.537Z</time></trkpt><trkpt lat="42.1122045" lon="12.8355556"><ele>852.0</ele><time>2026-03-28T14:17:41.532Z</time></trkpt><trkpt lat="42.1122765" lon="12.8356063"><ele>852.0</ele><time>2026-03-28T14:17:42.52Z</time></trkpt><trkpt lat="42.1123633" lon="12.8356988"><ele>852.0</ele><time>2026-03-28T14:17:44.568Z</time></trkpt><trkpt lat="42.1124458" lon="12.8357915"><ele>852.0</ele><time>2026-03-28T14:17:46.54Z</time></trkpt><trkpt lat="42.1125292" lon="12.8358749"><ele>852.0</ele><time>2026-03-28T14:17:48.515Z</time></trkpt><trkpt lat="42.1125976" lon="12.8359774"><ele>852.6666666666666</ele><time>2026-03-28T14:17:50.546Z</time></trkpt><trkpt lat="42.1126712" lon="12.8360913"><ele>853.3333333333333</ele><time>2026-03-28T14:17:52.527Z</time></trkpt><trkpt lat="42.1127602" lon="12.8362088"><ele>854.0</ele><time>2026-03-28T14:17:54.527Z</time></trkpt><trkpt lat="42.112811" lon="12.836262"><ele>854.6666666666666</ele><time>2026-03-28T14:17:55.534Z</time></trkpt><trkpt lat="42.1128643" lon="12.8363187"><ele>855.3333333333333</ele><time>2026-03-28T14:17:56.53Z</time></trkpt><trkpt lat="42.1129211" lon="12.8363699"><ele>856.0</ele><time>2026-03-28T14:17:57.52Z</time></trkpt><trkpt lat="42.1129763" lon="12.8364272"><ele>855.9999999999999</ele><time>2026-03-28T14:17:58.517Z</time></trkpt><trkpt lat="42.1130343" lon="12.8364851"><ele>856.0</ele><time>2026-03-28T14:17:59.52Z</time></trkpt><trkpt lat="42.113093" lon="12.836543"><ele>856.0</ele><time>2026-03-28T14:18:00.53Z</time></trkpt><trkpt lat="42.1131464" lon="12.8366077"><ele>856.0</ele><time>2026-03-28T14:18:01.53Z</time></trkpt><trkpt lat="42.1132013" lon="12.8366799"><ele>855.9999999999999</ele><time>2026-03-28T14:18:02.525Z</time></trkpt><trkpt lat="42.1132597" lon="12.8367562"><ele>856.0</ele><time>2026-03-28T14:18:03.541Z</time></trkpt><trkpt lat="42.1133186" lon="12.8368355"><ele>854.3333333333333</ele><time>2026-03-28T14:18:04.53Z</time></trkpt><trkpt lat="42.1133741" lon="12.8369234"><ele>852.6666666666666</ele><time>2026-03-28T14:18:05.543Z</time></trkpt><trkpt lat="42.1134187" lon="12.8370065"><ele>851.0</ele><time>2026-03-28T14:18:06.521Z</time></trkpt><trkpt lat="42.1134784" lon="12.8371242"><ele>849.3333333333333</ele><time>2026-03-28T14:18:08.543Z</time></trkpt><trkpt lat="42.1135482" lon="12.8371758"><ele>847.6666666666666</ele><time>2026-03-28T14:18:10.52Z</time></trkpt><trkpt lat="42.1136201" lon="12.8371658"><ele>846.0</ele><time>2026-03-28T14:18:12.521Z</time></trkpt><trkpt lat="42.1136921" lon="12.8371251"><ele>846.0</ele><time>2026-03-28T14:18:14.518Z</time></trkpt><trkpt lat="42.1137659" lon="12.8370699"><ele>846.0</ele><time>2026-03-28T14:18:16.522Z</time></trkpt><trkpt lat="42.1138553" lon="12.8369904"><ele>846.0</ele><time>2026-03-28T14:18:18.526Z</time></trkpt><trkpt lat="42.113962" lon="12.8369347"><ele>846.0</ele><time>2026-03-28T14:18:20.52Z</time></trkpt><trkpt lat="42.1140693" lon="12.8369045"><ele>846.0</ele><time>2026-03-28T14:18:22.529Z</time></trkpt><trkpt lat="42.1141839" lon="12.8369279"><ele>847.4</ele><time>2026-03-28T14:18:24.523Z</time></trkpt><trkpt lat="42.1142925" lon="12.8369765"><ele>848.8</ele><time>2026-03-28T14:18:26.527Z</time></trkpt><trkpt lat="42.1143797" lon="12.8370361"><ele>850.1999999999999</ele><time>2026-03-28T14:18:28.527Z</time></trkpt><trkpt lat="42.1144574" lon="12.8370944"><ele>851.5999999999999</ele><time>2026-03-28T14:18:30.55Z</time></trkpt><trkpt lat="42.1145303" lon="12.8371398"><ele>853.0</ele><time>2026-03-28T14:18:32.516Z</time></trkpt><trkpt lat="42.1145965" lon="12.8372063"><ele>853.0</ele><time>2026-03-28T14:18:34.522Z</time></trkpt><trkpt lat="42.1146862" lon="12.8372895"><ele>853.0</ele><time>2026-03-28T14:18:36.539Z</time></trkpt><trkpt lat="42.1147869" lon="12.837298"><ele>853.0</ele><time>2026-03-28T14:18:38.519Z</time></trkpt><trkpt lat="42.1148907" lon="12.8372352"><ele>853.0</ele><time>2026-03-28T14:18:40.518Z</time></trkpt><trkpt lat="42.1149926" lon="12.8371513"><ele>853.0</ele><time>2026-03-28T14:18:42.519Z</time></trkpt><trkpt lat="42.1150838" lon="12.8370999"><ele>851.4</ele><time>2026-03-28T14:18:44.561Z</time></trkpt><trkpt lat="42.1151836" lon="12.8370811"><ele>849.8</ele><time>2026-03-28T14:18:46.531Z</time></trkpt><trkpt lat="42.1152889" lon="12.8371047"><ele>848.2</ele><time>2026-03-28T14:18:48.525Z</time></trkpt><trkpt lat="42.1153569" lon="12.8371307"><ele>846.6</ele><time>2026-03-28T14:18:50.519Z</time></trkpt><trkpt lat="42.115399" lon="12.8371968"><ele>845.0</ele><time>2026-03-28T14:18:52.537Z</time></trkpt><trkpt lat="42.1154586" lon="12.8373372"><ele>845.0</ele><time>2026-03-28T14:18:54.545Z</time></trkpt><trkpt lat="42.1154928" lon="12.8374201"><ele>845.0</ele><time>2026-03-28T14:18:55.532Z</time></trkpt><trkpt lat="42.1155223" lon="12.8375015"><ele>845.0</ele><time>2026-03-28T14:18:56.528Z</time></trkpt><trkpt lat="42.1155838" lon="12.8376382"><ele>845.0</ele><time>2026-03-28T14:18:58.54Z</time></trkpt><trkpt lat="42.1156718" lon="12.8377601"><ele>845.0</ele><time>2026-03-28T14:19:00.522Z</time></trkpt><trkpt lat="42.1157254" lon="12.8378159"><ele>846.1428571428571</ele><time>2026-03-28T14:19:01.52Z</time></trkpt><trkpt lat="42.115782" lon="12.8378757"><ele>847.2857142857142</ele><time>2026-03-28T14:19:02.548Z</time></trkpt><trkpt lat="42.1158386" lon="12.8379353"><ele>848.4285714285713</ele><time>2026-03-28T14:19:03.537Z</time></trkpt><trkpt lat="42.1158927" lon="12.8379931"><ele>849.5714285714286</ele><time>2026-03-28T14:19:04.526Z</time></trkpt><trkpt lat="42.1159446" lon="12.8380578"><ele>850.7142857142858</ele><time>2026-03-28T14:19:05.524Z</time></trkpt><trkpt lat="42.1159925" lon="12.8381168"><ele>851.8571428571428</ele><time>2026-03-28T14:19:06.539Z</time></trkpt><trkpt lat="42.1160362" lon="12.8381785"><ele>853.0</ele><time>2026-03-28T14:19:07.545Z</time></trkpt><trkpt lat="42.1161032" lon="12.8383037"><ele>852.9999999999999</ele><time>2026-03-28T14:19:09.545Z</time></trkpt><trkpt lat="42.1161362" lon="12.8383825"><ele>853.0</ele><time>2026-03-28T14:19:10.533Z</time></trkpt><trkpt lat="42.1161626" lon="12.8384745"><ele>853.0</ele><time>2026-03-28T14:19:11.538Z</time></trkpt><trkpt lat="42.1161862" lon="12.8385665"><ele>853.0</ele><time>2026-03-28T14:19:12.518Z</time></trkpt><trkpt lat="42.1162047" lon="12.8386533"><ele>852.9999999999999</ele><time>2026-03-28T14:19:13.568Z</time></trkpt><trkpt lat="42.116204" lon="12.8388104"><ele>853.0</ele><time>2026-03-28T14:19:15.542Z</time></trkpt><trkpt lat="42.1161898" lon="12.8389664"><ele>854.4</ele><time>2026-03-28T14:19:17.534Z</time></trkpt><trkpt lat="42.1161752" lon="12.8391104"><ele>855.8</ele><time>2026-03-28T14:19:19.536Z</time></trkpt><trkpt lat="42.1161836" lon="12.8392243"><ele>857.2</ele><time>2026-03-28T14:19:21.538Z</time></trkpt><trkpt lat="42.1162584" lon="12.8393041"><ele>858.6</ele><time>2026-03-28T14:19:24.519Z</time></trkpt><trkpt lat="42.1163251" lon="12.8393446"><ele>860.0</ele><time>2026-03-28T14:19:26.515Z</time></trkpt><trkpt lat="42.1164352" lon="12.8394058"><ele>860.1666666666667</ele><time>2026-03-28T14:19:28.522Z</time></trkpt><trkpt lat="42.1165481" lon="12.8394624"><ele>860.3333333333334</ele><time>2026-03-28T14:19:30.538Z</time></trkpt><trkpt lat="42.1166686" lon="12.8395032"><ele>860.5</ele><time>2026-03-28T14:19:32.523Z</time></trkpt><trkpt lat="42.1167324" lon="12.8395163"><ele>860.6666666666667</ele><time>2026-03-28T14:19:33.534Z</time></trkpt><trkpt lat="42.1168007" lon="12.8395264"><ele>860.8333333333334</ele><time>2026-03-28T14:19:34.539Z</time></trkpt><trkpt lat="42.1168629" lon="12.8395414"><ele>861.0</ele><time>2026-03-28T14:19:35.529Z</time></trkpt><trkpt lat="42.1169301" lon="12.8395683"><ele>861.0</ele><time>2026-03-28T14:19:36.529Z</time></trkpt><trkpt lat="42.1170116" lon="12.8396088"><ele>861.0</ele><time>2026-03-28T14:19:37.533Z</time></trkpt><trkpt lat="42.1170984" lon="12.8396497"><ele>861.0</ele><time>2026-03-28T14:19:38.541Z</time></trkpt><trkpt lat="42.1171761" lon="12.8396823"><ele>861.0</ele><time>2026-03-28T14:19:39.519Z</time></trkpt><trkpt lat="42.1172558" lon="12.839704"><ele>861.0</ele><time>2026-03-28T14:19:40.548Z</time></trkpt><trkpt lat="42.1173311" lon="12.8397202"><ele>861.0</ele><time>2026-03-28T14:19:41.532Z</time></trkpt><trkpt lat="42.1174171" lon="12.8397292"><ele>863.5999999999999</ele><time>2026-03-28T14:19:42.528Z</time></trkpt><trkpt lat="42.1175101" lon="12.839731"><ele>866.1999999999999</ele><time>2026-03-28T14:19:43.528Z</time></trkpt><trkpt lat="42.1176081" lon="12.8397277"><ele>868.8000000000001</ele><time>2026-03-28T14:19:44.515Z</time></trkpt><trkpt lat="42.1177055" lon="12.8397209"><ele>871.4000000000001</ele><time>2026-03-28T14:19:45.515Z</time></trkpt><trkpt lat="42.1177985" lon="12.8397018"><ele>874.0</ele><time>2026-03-28T14:19:46.536Z</time></trkpt><trkpt lat="42.1178879" lon="12.839671"><ele>873.9999999999999</ele><time>2026-03-28T14:19:47.542Z</time></trkpt><trkpt lat="42.1179724" lon="12.8396312"><ele>874.0</ele><time>2026-03-28T14:19:48.533Z</time></trkpt><trkpt lat="42.1180544" lon="12.8395912"><ele>874.0</ele><time>2026-03-28T14:19:49.52Z</time></trkpt><trkpt lat="42.1181338" lon="12.8395583"><ele>874.0</ele><time>2026-03-28T14:19:50.528Z</time></trkpt><trkpt lat="42.1182063" lon="12.8395354"><ele>873.9999999999999</ele><time>2026-03-28T14:19:51.548Z</time></trkpt><trkpt lat="42.1182725" lon="12.8395276"><ele>874.0</ele><time>2026-03-28T14:19:52.539Z</time></trkpt><trkpt lat="42.1183354" lon="12.8395407"><ele>875.9999999999999</ele><time>2026-03-28T14:19:53.526Z</time></trkpt><trkpt lat="42.1183992" lon="12.8395698"><ele>878.0</ele><time>2026-03-28T14:19:54.527Z</time></trkpt><trkpt lat="42.1184685" lon="12.8395948"><ele>880.0</ele><time>2026-03-28T14:19:55.557Z</time></trkpt><trkpt lat="42.1185479" lon="12.8396135"><ele>882.0</ele><time>2026-03-28T14:19:56.524Z</time></trkpt><trkpt lat="42.1186305" lon="12.8396347"><ele>883.9999999999999</ele><time>2026-03-28T14:19:57.541Z</time></trkpt><trkpt lat="42.1187142" lon="12.8396451"><ele>886.0</ele><time>2026-03-28T14:19:58.557Z</time></trkpt><trkpt lat="42.1188077" lon="12.8396563"><ele>885.9999999999999</ele><time>2026-03-28T14:19:59.548Z</time></trkpt><trkpt lat="42.1188987" lon="12.8396566"><ele>886.0</ele><time>2026-03-28T14:20:00.553Z</time></trkpt><trkpt lat="42.1189888" lon="12.8396611"><ele>886.0</ele><time>2026-03-28T14:20:01.538Z</time></trkpt><trkpt lat="42.1190784" lon="12.839669"><ele>886.0</ele><time>2026-03-28T14:20:02.535Z</time></trkpt><trkpt lat="42.119159" lon="12.8396868"><ele>885.9999999999999</ele><time>2026-03-28T14:20:03.538Z</time></trkpt><trkpt lat="42.1192378" lon="12.8397139"><ele>886.0</ele><time>2026-03-28T14:20:04.553Z</time></trkpt><trkpt lat="42.1193147" lon="12.8397507"><ele>886.6666666666666</ele><time>2026-03-28T14:20:05.542Z</time></trkpt><trkpt lat="42.1193886" lon="12.8397952"><ele>887.3333333333333</ele><time>2026-03-28T14:20:06.528Z</time></trkpt><trkpt lat="42.1194593" lon="12.8398344"><ele>888.0</ele><time>2026-03-28T14:20:07.534Z</time></trkpt><trkpt lat="42.1195269" lon="12.8398793"><ele>888.6666666666667</ele><time>2026-03-28T14:20:08.538Z</time></trkpt><trkpt lat="42.1195939" lon="12.8399337"><ele>889.3333333333334</ele><time>2026-03-28T14:20:09.542Z</time></trkpt><trkpt lat="42.1196599" lon="12.839988"><ele>890.0</ele><time>2026-03-28T14:20:10.529Z</time></trkpt><trkpt lat="42.119728" lon="12.8400392"><ele>890.0000000000001</ele><time>2026-03-28T14:20:11.541Z</time></trkpt><trkpt lat="42.1197926" lon="12.8400904"><ele>890.0</ele><time>2026-03-28T14:20:12.515Z</time></trkpt><trkpt lat="42.1198542" lon="12.8401496"><ele>890.0</ele><time>2026-03-28T14:20:13.532Z</time></trkpt><trkpt lat="42.1199121" lon="12.8402153"><ele>890.0</ele><time>2026-03-28T14:20:14.542Z</time></trkpt><trkpt lat="42.1199689" lon="12.8402821"><ele>890.0000000000001</ele><time>2026-03-28T14:20:15.557Z</time></trkpt><trkpt lat="42.120036" lon="12.8403571"><ele>890.0</ele><time>2026-03-28T14:20:16.537Z</time></trkpt><trkpt lat="42.1201088" lon="12.8404277"><ele>893.6666666666667</ele><time>2026-03-28T14:20:17.535Z</time></trkpt><trkpt lat="42.120181" lon="12.8404986"><ele>897.3333333333334</ele><time>2026-03-28T14:20:18.541Z</time></trkpt><trkpt lat="42.1202511" lon="12.8405669"><ele>901.0</ele><time>2026-03-28T14:20:19.557Z</time></trkpt><trkpt lat="42.1203176" lon="12.8406349"><ele>904.6666666666667</ele><time>2026-03-28T14:20:20.515Z</time></trkpt><trkpt lat="42.1203821" lon="12.8406969"><ele>908.3333333333334</ele><time>2026-03-28T14:20:21.535Z</time></trkpt><trkpt lat="42.1204462" lon="12.840759"><ele>912.0</ele><time>2026-03-28T14:20:22.528Z</time></trkpt><trkpt lat="42.1205001" lon="12.8408202"><ele>912.0</ele><time>2026-03-28T14:20:23.52Z</time></trkpt><trkpt lat="42.1205521" lon="12.8408705"><ele>912.0</ele><time>2026-03-28T14:20:24.541Z</time></trkpt><trkpt lat="42.1206604" lon="12.8409417"><ele>912.0</ele><time>2026-03-28T14:20:26.524Z</time></trkpt><trkpt lat="42.1207648" lon="12.8409813"><ele>912.0</ele><time>2026-03-28T14:20:28.531Z</time></trkpt><trkpt lat="42.1208963" lon="12.840906"><ele>912.0</ele><time>2026-03-28T14:20:30.522Z</time></trkpt><trkpt lat="42.1209656" lon="12.8408477"><ele>909.8333333333334</ele><time>2026-03-28T14:20:31.532Z</time></trkpt><trkpt lat="42.121034" lon="12.8407753"><ele>907.6666666666667</ele><time>2026-03-28T14:20:32.529Z</time></trkpt><trkpt lat="42.1211045" lon="12.840691"><ele>905.5</ele><time>2026-03-28T14:20:33.525Z</time></trkpt><trkpt lat="42.1211755" lon="12.8406062"><ele>903.3333333333334</ele><time>2026-03-28T14:20:34.532Z</time></trkpt><trkpt lat="42.1212355" lon="12.8405291"><ele>901.1666666666667</ele><time>2026-03-28T14:20:35.537Z</time></trkpt><trkpt lat="42.121289" lon="12.8404598"><ele>899.0</ele><time>2026-03-28T14:20:36.533Z</time></trkpt><trkpt lat="42.1213322" lon="12.8403865"><ele>899.0000000000001</ele><time>2026-03-28T14:20:37.541Z</time></trkpt><trkpt lat="42.1213588" lon="12.8403027"><ele>899.0</ele><time>2026-03-28T14:20:38.534Z</time></trkpt><trkpt lat="42.1213578" lon="12.8401966"><ele>899.0</ele><time>2026-03-28T14:20:39.538Z</time></trkpt><trkpt lat="42.121345" lon="12.8400788"><ele>899.0</ele><time>2026-03-28T14:20:40.528Z</time></trkpt><trkpt lat="42.12133" lon="12.8399642"><ele>899.0000000000001</ele><time>2026-03-28T14:20:41.536Z</time></trkpt><trkpt lat="42.1213181" lon="12.8398294"><ele>899.0</ele><time>2026-03-28T14:20:43.521Z</time></trkpt><trkpt lat="42.1213188" lon="12.8397202"><ele>899.1666666666667</ele><time>2026-03-28T14:20:45.541Z</time></trkpt><trkpt lat="42.1213592" lon="12.8395974"><ele>899.3333333333334</ele><time>2026-03-28T14:20:47.52Z</time></trkpt><trkpt lat="42.1214315" lon="12.839531"><ele>899.5</ele><time>2026-03-28T14:20:49.529Z</time></trkpt><trkpt lat="42.1215091" lon="12.8394989"><ele>899.6666666666667</ele><time>2026-03-28T14:20:51.523Z</time></trkpt><trkpt lat="42.1215928" lon="12.839493"><ele>899.8333333333334</ele><time>2026-03-28T14:20:53.53Z</time></trkpt><trkpt lat="42.1216765" lon="12.83954"><ele>900.0</ele><time>2026-03-28T14:20:55.528Z</time></trkpt><trkpt lat="42.1217483" lon="12.8396061"><ele>900.0</ele><time>2026-03-28T14:20:57.534Z</time></trkpt><trkpt lat="42.121813" lon="12.8396948"><ele>900.0</ele><time>2026-03-28T14:20:59.525Z</time></trkpt><trkpt lat="42.121858" lon="12.8398047"><ele>900.0</ele><time>2026-03-28T14:21:01.538Z</time></trkpt><trkpt lat="42.1218786" lon="12.839963"><ele>900.0</ele><time>2026-03-28T14:21:03.522Z</time></trkpt><trkpt lat="42.1218947" lon="12.8401048"><ele>900.0</ele><time>2026-03-28T14:21:05.546Z</time></trkpt><trkpt lat="42.1219022" lon="12.8402536"><ele>901.0</ele><time>2026-03-28T14:21:07.528Z</time></trkpt><trkpt lat="42.1219" lon="12.8403399"><ele>902.0</ele><time>2026-03-28T14:21:08.565Z</time></trkpt><trkpt lat="42.1218954" lon="12.8404258"><ele>903.0</ele><time>2026-03-28T14:21:09.553Z</time></trkpt><trkpt lat="42.1218876" lon="12.8405863"><ele>904.0</ele><time>2026-03-28T14:21:11.518Z</time></trkpt><trkpt lat="42.1218833" lon="12.8407323"><ele>905.0</ele><time>2026-03-28T14:21:13.54Z</time></trkpt><trkpt lat="42.1218622" lon="12.8408806"><ele>904.3333333333334</ele><time>2026-03-28T14:21:15.51Z</time></trkpt><trkpt lat="42.1218158" lon="12.8409974"><ele>903.6666666666667</ele><time>2026-03-28T14:21:17.522Z</time></trkpt><trkpt lat="42.1217661" lon="12.8410708"><ele>903.0</ele><time>2026-03-28T14:21:19.537Z</time></trkpt><trkpt lat="42.1217421" lon="12.8411515"><ele>902.3333333333333</ele><time>2026-03-28T14:21:32.517Z</time></trkpt><trkpt lat="42.121771" lon="12.8412469"><ele>901.6666666666666</ele><time>2026-03-28T14:21:38.523Z</time></trkpt><trkpt lat="42.1217242" lon="12.8413639"><ele>901.0</ele><time>2026-03-28T14:21:42.536Z</time></trkpt><trkpt lat="42.1216563" lon="12.8414533"><ele>901.0</ele><time>2026-03-28T14:21:44.52Z</time></trkpt><trkpt lat="42.1215801" lon="12.8415482"><ele>900.9999999999999</ele><time>2026-03-28T14:21:46.538Z</time></trkpt><trkpt lat="42.1215096" lon="12.8416376"><ele>900.9999999999999</ele><time>2026-03-28T14:21:48.518Z</time></trkpt><trkpt lat="42.1214449" lon="12.8417195"><ele>901.0</ele><time>2026-03-28T14:21:50.532Z</time></trkpt><trkpt lat="42.121383" lon="12.8418128"><ele>901.0</ele><time>2026-03-28T14:21:52.543Z</time></trkpt><trkpt lat="42.121324" lon="12.8419066"><ele>906.5999999999999</ele><time>2026-03-28T14:21:54.531Z</time></trkpt><trkpt lat="42.1212759" lon="12.8420113"><ele>912.1999999999999</ele><time>2026-03-28T14:21:56.534Z</time></trkpt><trkpt lat="42.121236" lon="12.8421295"><ele>917.8000000000001</ele><time>2026-03-28T14:21:58.52Z</time></trkpt><trkpt lat="42.1212082" lon="12.8422479"><ele>923.4000000000001</ele><time>2026-03-28T14:22:00.521Z</time></trkpt><trkpt lat="42.1211787" lon="12.8423619"><ele>929.0</ele><time>2026-03-28T14:22:02.553Z</time></trkpt><trkpt lat="42.1211468" lon="12.8424674"><ele>929.0000000000001</ele><time>2026-03-28T14:22:04.543Z</time></trkpt><trkpt lat="42.1211179" lon="12.8425716"><ele>929.0</ele><time>2026-03-28T14:22:06.533Z</time></trkpt><trkpt lat="42.1210972" lon="12.8426802"><ele>929.0</ele><time>2026-03-28T14:22:08.556Z</time></trkpt><trkpt lat="42.1210874" lon="12.842794"><ele>929.0</ele><time>2026-03-28T14:22:10.544Z</time></trkpt><trkpt lat="42.121086" lon="12.8429177"><ele>929.0000000000001</ele><time>2026-03-28T14:22:12.537Z</time></trkpt><trkpt lat="42.1210953" lon="12.8430448"><ele>929.0</ele><time>2026-03-28T14:22:14.537Z</time></trkpt><trkpt lat="42.1210946" lon="12.8431628"><ele>927.4000000000001</ele><time>2026-03-28T14:22:16.53Z</time></trkpt><trkpt lat="42.1210857" lon="12.8432892"><ele>925.8000000000001</ele><time>2026-03-28T14:22:18.533Z</time></trkpt><trkpt lat="42.1210673" lon="12.8434192"><ele>924.1999999999999</ele><time>2026-03-28T14:22:20.534Z</time></trkpt><trkpt lat="42.1210188" lon="12.8435596"><ele>922.5999999999999</ele><time>2026-03-28T14:22:22.536Z</time></trkpt><trkpt lat="42.1209511" lon="12.843686"><ele>921.0</ele><time>2026-03-28T14:22:24.529Z</time></trkpt><trkpt lat="42.1208933" lon="12.8437949"><ele>921.0</ele><time>2026-03-28T14:22:26.534Z</time></trkpt><trkpt lat="42.1208369" lon="12.8439066"><ele>920.9999999999999</ele><time>2026-03-28T14:22:28.533Z</time></trkpt><trkpt lat="42.1207847" lon="12.8440353"><ele>920.9999999999999</ele><time>2026-03-28T14:22:30.561Z</time></trkpt><trkpt lat="42.1207485" lon="12.8441712"><ele>921.0</ele><time>2026-03-28T14:22:32.528Z</time></trkpt><trkpt lat="42.1207357" lon="12.8443112"><ele>921.0</ele><time>2026-03-28T14:22:34.534Z</time></trkpt><trkpt lat="42.1207276" lon="12.844467"><ele>921.0</ele><time>2026-03-28T14:22:36.565Z</time></trkpt><trkpt lat="42.1207368" lon="12.8446192"><ele>920.9999999999999</ele><time>2026-03-28T14:22:38.545Z</time></trkpt><trkpt lat="42.1207539" lon="12.8447624"><ele>920.9999999999999</ele><time>2026-03-28T14:22:40.54Z</time></trkpt><trkpt lat="42.120764" lon="12.8448861"><ele>921.0</ele><time>2026-03-28T14:22:42.54Z</time></trkpt><trkpt lat="42.1207378" lon="12.844991"><ele>921.0</ele><time>2026-03-28T14:22:44.518Z</time></trkpt><trkpt lat="42.1206594" lon="12.8450802"><ele>914.1999999999999</ele><time>2026-03-28T14:22:46.523Z</time></trkpt><trkpt lat="42.1205979" lon="12.8451767"><ele>907.3999999999999</ele><time>2026-03-28T14:22:48.528Z</time></trkpt><trkpt lat="42.1205332" lon="12.8452759"><ele>900.6</ele><time>2026-03-28T14:22:50.534Z</time></trkpt><trkpt lat="42.1204609" lon="12.8453662"><ele>893.8</ele><time>2026-03-28T14:22:52.522Z</time></trkpt><trkpt lat="42.1203908" lon="12.8454553"><ele>887.0</ele><time>2026-03-28T14:22:54.532Z</time></trkpt><trkpt lat="42.1203175" lon="12.8455416"><ele>887.0</ele><time>2026-03-28T14:22:56.525Z</time></trkpt><trkpt lat="42.1202341" lon="12.8456222"><ele>887.0</ele><time>2026-03-28T14:22:58.541Z</time></trkpt><trkpt lat="42.1201421" lon="12.8457068"><ele>887.0</ele><time>2026-03-28T14:23:00.53Z</time></trkpt><trkpt lat="42.1200486" lon="12.8457786"><ele>887.0</ele><time>2026-03-28T14:23:02.525Z</time></trkpt><trkpt lat="42.1199494" lon="12.8458339"><ele>887.0</ele><time>2026-03-28T14:23:04.534Z</time></trkpt><trkpt lat="42.1198381" lon="12.8458819"><ele>884.4000000000001</ele><time>2026-03-28T14:23:06.534Z</time></trkpt><trkpt lat="42.1197449" lon="12.8459401"><ele>881.8000000000001</ele><time>2026-03-28T14:23:08.539Z</time></trkpt><trkpt lat="42.119661" lon="12.8460181"><ele>879.2</ele><time>2026-03-28T14:23:10.535Z</time></trkpt><trkpt lat="42.1195783" lon="12.8460931"><ele>876.6</ele><time>2026-03-28T14:23:12.518Z</time></trkpt><trkpt lat="42.1194925" lon="12.8461668"><ele>874.0</ele><time>2026-03-28T14:23:14.522Z</time></trkpt><trkpt lat="42.1194022" lon="12.8462436"><ele>874.0</ele><time>2026-03-28T14:23:16.541Z</time></trkpt><trkpt lat="42.1193121" lon="12.8463138"><ele>874.0000000000001</ele><time>2026-03-28T14:23:18.531Z</time></trkpt><trkpt lat="42.1192208" lon="12.8463827"><ele>874.0000000000001</ele><time>2026-03-28T14:23:20.538Z</time></trkpt><trkpt lat="42.1191324" lon="12.846452"><ele>874.0</ele><time>2026-03-28T14:23:22.537Z</time></trkpt><trkpt lat="42.11906" lon="12.8465275"><ele>874.0</ele><time>2026-03-28T14:23:24.528Z</time></trkpt><trkpt lat="42.1189957" lon="12.8466226"><ele>871.0</ele><time>2026-03-28T14:23:26.535Z</time></trkpt><trkpt lat="42.1189326" lon="12.8467367"><ele>868.0000000000001</ele><time>2026-03-28T14:23:28.547Z</time></trkpt><trkpt lat="42.1188717" lon="12.8468371"><ele>865.0000000000001</ele><time>2026-03-28T14:23:30.541Z</time></trkpt><trkpt lat="42.1187992" lon="12.8469303"><ele>862.0</ele><time>2026-03-28T14:23:32.535Z</time></trkpt><trkpt lat="42.1187162" lon="12.8469867"><ele>859.0</ele><time>2026-03-28T14:23:34.516Z</time></trkpt><trkpt lat="42.1186399" lon="12.8470371"><ele>859.0</ele><time>2026-03-28T14:23:36.541Z</time></trkpt><trkpt lat="42.1185553" lon="12.8470814"><ele>859.0000000000001</ele><time>2026-03-28T14:23:38.511Z</time></trkpt><trkpt lat="42.1184734" lon="12.8471343"><ele>859.0000000000001</ele><time>2026-03-28T14:23:40.546Z</time></trkpt><trkpt lat="42.118391" lon="12.8471944"><ele>859.0</ele><time>2026-03-28T14:23:42.535Z</time></trkpt><trkpt lat="42.1183039" lon="12.8472508"><ele>859.0</ele><time>2026-03-28T14:23:44.546Z</time></trkpt><trkpt lat="42.1182114" lon="12.8472991"><ele>860.4000000000001</ele><time>2026-03-28T14:23:46.538Z</time></trkpt><trkpt lat="42.1181242" lon="12.8473374"><ele>861.8000000000001</ele><time>2026-03-28T14:23:48.522Z</time></trkpt><trkpt lat="42.1180353" lon="12.8473902"><ele>863.1999999999999</ele><time>2026-03-28T14:23:50.528Z</time></trkpt><trkpt lat="42.1179464" lon="12.8474413"><ele>864.5999999999999</ele><time>2026-03-28T14:23:52.52Z</time></trkpt><trkpt lat="42.1178555" lon="12.8474897"><ele>866.0</ele><time>2026-03-28T14:23:54.518Z</time></trkpt><trkpt lat="42.1177578" lon="12.8475214"><ele>866.0</ele><time>2026-03-28T14:23:56.526Z</time></trkpt><trkpt lat="42.1176579" lon="12.8475415"><ele>865.9999999999999</ele><time>2026-03-28T14:23:58.519Z</time></trkpt><trkpt lat="42.1175545" lon="12.8475638"><ele>865.9999999999999</ele><time>2026-03-28T14:24:00.526Z</time></trkpt><trkpt lat="42.1174557" lon="12.8475825"><ele>866.0</ele><time>2026-03-28T14:24:02.535Z</time></trkpt><trkpt lat="42.1173522" lon="12.8475845"><ele>866.0</ele><time>2026-03-28T14:24:04.539Z</time></trkpt><trkpt lat="42.1172531" lon="12.8475852"><ele>864.8</ele><time>2026-03-28T14:24:06.52Z</time></trkpt><trkpt lat="42.1171548" lon="12.8475797"><ele>863.5999999999999</ele><time>2026-03-28T14:24:08.52Z</time></trkpt><trkpt lat="42.1170641" lon="12.8475633"><ele>862.4</ele><time>2026-03-28T14:24:10.521Z</time></trkpt><trkpt lat="42.1169634" lon="12.8475516"><ele>861.2</ele><time>2026-03-28T14:24:12.535Z</time></trkpt><trkpt lat="42.1168537" lon="12.8475223"><ele>860.0</ele><time>2026-03-28T14:24:14.525Z</time></trkpt><trkpt lat="42.1167463" lon="12.8475038"><ele>860.0</ele><time>2026-03-28T14:24:16.549Z</time></trkpt><trkpt lat="42.1166401" lon="12.8474929"><ele>860.0</ele><time>2026-03-28T14:24:18.56Z</time></trkpt><trkpt lat="42.1165298" lon="12.8474872"><ele>860.0</ele><time>2026-03-28T14:24:20.558Z</time></trkpt><trkpt lat="42.1164178" lon="12.847484"><ele>860.0</ele><time>2026-03-28T14:24:22.53Z</time></trkpt><trkpt lat="42.1163187" lon="12.8474908"><ele>860.0</ele><time>2026-03-28T14:24:24.536Z</time></trkpt><trkpt lat="42.1162196" lon="12.8475094"><ele>860.2</ele><time>2026-03-28T14:24:26.513Z</time></trkpt><trkpt lat="42.1161211" lon="12.8475222"><ele>860.4</ele><time>2026-03-28T14:24:28.522Z</time></trkpt><trkpt lat="42.116028" lon="12.8475421"><ele>860.5999999999999</ele><time>2026-03-28T14:24:30.547Z</time></trkpt><trkpt lat="42.1159337" lon="12.8475687"><ele>860.8</ele><time>2026-03-28T14:24:32.529Z</time></trkpt><trkpt lat="42.1158447" lon="12.8475992"><ele>861.0</ele><time>2026-03-28T14:24:34.571Z</time></trkpt><trkpt lat="42.1157438" lon="12.847611"><ele>852.8</ele><time>2026-03-28T14:24:36.524Z</time></trkpt><trkpt lat="42.1156419" lon="12.8476372"><ele>844.5999999999999</ele><time>2026-03-28T14:24:38.527Z</time></trkpt><trkpt lat="42.1155337" lon="12.8476397"><ele>836.4</ele><time>2026-03-28T14:24:40.543Z</time></trkpt><trkpt lat="42.1154326" lon="12.8476612"><ele>828.2</ele><time>2026-03-28T14:24:42.526Z</time></trkpt><trkpt lat="42.1153379" lon="12.8477067"><ele>820.0</ele><time>2026-03-28T14:24:44.517Z</time></trkpt><trkpt lat="42.1152487" lon="12.8477796"><ele>820.0</ele><time>2026-03-28T14:24:46.52Z</time></trkpt><trkpt lat="42.1151592" lon="12.8478361"><ele>820.0</ele><time>2026-03-28T14:24:48.51Z</time></trkpt><trkpt lat="42.1150649" lon="12.8478716"><ele>820.0</ele><time>2026-03-28T14:24:50.522Z</time></trkpt><trkpt lat="42.1149672" lon="12.8478895"><ele>820.0</ele><time>2026-03-28T14:24:52.53Z</time></trkpt><trkpt lat="42.1148704" lon="12.847875"><ele>820.0</ele><time>2026-03-28T14:24:54.51Z</time></trkpt><trkpt lat="42.1147757" lon="12.8478616"><ele>819.4</ele><time>2026-03-28T14:24:56.52Z</time></trkpt><trkpt lat="42.114683" lon="12.8478574"><ele>818.8</ele><time>2026-03-28T14:24:58.527Z</time></trkpt><trkpt lat="42.1145852" lon="12.8478566"><ele>818.2</ele><time>2026-03-28T14:25:00.533Z</time></trkpt><trkpt lat="42.1144854" lon="12.8478502"><ele>817.6</ele><time>2026-03-28T14:25:02.527Z</time></trkpt><trkpt lat="42.1143832" lon="12.8478373"><ele>817.0</ele><time>2026-03-28T14:25:04.519Z</time></trkpt><trkpt lat="42.1142751" lon="12.8478189"><ele>817.0</ele><time>2026-03-28T14:25:06.524Z</time></trkpt><trkpt lat="42.1141627" lon="12.8478045"><ele>817.0</ele><time>2026-03-28T14:25:08.546Z</time></trkpt><trkpt lat="42.1140508" lon="12.847815"><ele>817.0</ele><time>2026-03-28T14:25:10.557Z</time></trkpt><trkpt lat="42.1139369" lon="12.8478388"><ele>817.0</ele><time>2026-03-28T14:25:12.524Z</time></trkpt><trkpt lat="42.1138274" lon="12.8478798"><ele>820.2</ele><time>2026-03-28T14:25:14.53Z</time></trkpt><trkpt lat="42.1137374" lon="12.8479463"><ele>823.4000000000001</ele><time>2026-03-28T14:25:16.526Z</time></trkpt><trkpt lat="42.1136544" lon="12.8480511"><ele>826.5999999999999</ele><time>2026-03-28T14:25:18.517Z</time></trkpt><trkpt lat="42.1135758" lon="12.8481529"><ele>829.8</ele><time>2026-03-28T14:25:20.517Z</time></trkpt><trkpt lat="42.1134992" lon="12.8482308"><ele>833.0</ele><time>2026-03-28T14:25:22.511Z</time></trkpt><trkpt lat="42.1134122" lon="12.8482705"><ele>833.0</ele><time>2026-03-28T14:25:24.532Z</time></trkpt><trkpt lat="42.1133243" lon="12.8483054"><ele>833.0</ele><time>2026-03-28T14:25:26.519Z</time></trkpt><trkpt lat="42.1132275" lon="12.8483316"><ele>833.0</ele><time>2026-03-28T14:25:28.527Z</time></trkpt><trkpt lat="42.1131156" lon="12.8483602"><ele>833.0</ele><time>2026-03-28T14:25:30.531Z</time></trkpt><trkpt lat="42.1130055" lon="12.8484056"><ele>833.0</ele><time>2026-03-28T14:25:32.513Z</time></trkpt><trkpt lat="42.112946" lon="12.8484346"><ele>832.8333333333334</ele><time>2026-03-28T14:25:33.519Z</time></trkpt><trkpt lat="42.1128855" lon="12.8484689"><ele>832.6666666666667</ele><time>2026-03-28T14:25:34.518Z</time></trkpt><trkpt lat="42.1128246" lon="12.8485078"><ele>832.5</ele><time>2026-03-28T14:25:35.507Z</time></trkpt><trkpt lat="42.1127678" lon="12.8485474"><ele>832.3333333333333</ele><time>2026-03-28T14:25:36.515Z</time></trkpt><trkpt lat="42.1126598" lon="12.8486236"><ele>832.1666666666666</ele><time>2026-03-28T14:25:38.58Z</time></trkpt><trkpt lat="42.1125595" lon="12.848663"><ele>832.0</ele><time>2026-03-28T14:25:40.531Z</time></trkpt><trkpt lat="42.1124663" lon="12.8487128"><ele>840.8</ele><time>2026-03-28T14:25:42.523Z</time></trkpt><trkpt lat="42.1123902" lon="12.8487979"><ele>849.6</ele><time>2026-03-28T14:25:44.528Z</time></trkpt><trkpt lat="42.1123313" lon="12.8489029"><ele>858.3999999999999</ele><time>2026-03-28T14:25:46.517Z</time></trkpt><trkpt lat="42.1122758" lon="12.8490081"><ele>867.1999999999999</ele><time>2026-03-28T14:25:48.509Z</time></trkpt><trkpt lat="42.1122191" lon="12.849127"><ele>876.0</ele><time>2026-03-28T14:25:50.529Z</time></trkpt><trkpt lat="42.1121706" lon="12.8492441"><ele>869.5999999999999</ele><time>2026-03-28T14:25:52.532Z</time></trkpt><trkpt lat="42.112119" lon="12.8493723"><ele>863.1999999999999</ele><time>2026-03-28T14:25:54.534Z</time></trkpt><trkpt lat="42.1120456" lon="12.8494886"><ele>856.8</ele><time>2026-03-28T14:25:56.552Z</time></trkpt><trkpt lat="42.1119528" lon="12.8495848"><ele>850.4000000000001</ele><time>2026-03-28T14:25:58.523Z</time></trkpt><trkpt lat="42.1118608" lon="12.849652"><ele>844.0</ele><time>2026-03-28T14:26:00.537Z</time></trkpt><trkpt lat="42.1117629" lon="12.8497164"><ele>843.9999999999999</ele><time>2026-03-28T14:26:02.525Z</time></trkpt><trkpt lat="42.1116631" lon="12.8497998"><ele>844.0</ele><time>2026-03-28T14:26:04.531Z</time></trkpt><trkpt lat="42.1115593" lon="12.8498913"><ele>844.0</ele><time>2026-03-28T14:26:06.523Z</time></trkpt><trkpt lat="42.1115057" lon="12.8499388"><ele>844.0</ele><time>2026-03-28T14:26:07.512Z</time></trkpt><trkpt lat="42.1114508" lon="12.8499824"><ele>843.9999999999999</ele><time>2026-03-28T14:26:08.509Z</time></trkpt><trkpt lat="42.1113897" lon="12.8500354"><ele>844.0</ele><time>2026-03-28T14:26:09.522Z</time></trkpt><trkpt lat="42.1113219" lon="12.8500919"><ele>845.1666666666666</ele><time>2026-03-28T14:26:10.523Z</time></trkpt><trkpt lat="42.111254" lon="12.8501434"><ele>846.3333333333333</ele><time>2026-03-28T14:26:11.548Z</time></trkpt><trkpt lat="42.1111894" lon="12.8501894"><ele>847.5</ele><time>2026-03-28T14:26:12.544Z</time></trkpt><trkpt lat="42.111129" lon="12.8502338"><ele>848.6666666666667</ele><time>2026-03-28T14:26:13.539Z</time></trkpt><trkpt lat="42.1110736" lon="12.8502752"><ele>849.8333333333334</ele><time>2026-03-28T14:26:14.538Z</time></trkpt><trkpt lat="42.1109501" lon="12.8503202"><ele>851.0</ele><time>2026-03-28T14:26:16.55Z</time></trkpt><trkpt lat="42.1108713" lon="12.8503264"><ele>851.0000000000001</ele><time>2026-03-28T14:26:17.544Z</time></trkpt><trkpt lat="42.1107924" lon="12.8503339"><ele>851.0</ele><time>2026-03-28T14:26:18.545Z</time></trkpt><trkpt lat="42.1107149" lon="12.8503447"><ele>851.0</ele><time>2026-03-28T14:26:19.53Z</time></trkpt><trkpt lat="42.1106362" lon="12.8503586"><ele>851.0</ele><time>2026-03-28T14:26:20.521Z</time></trkpt><trkpt lat="42.1105589" lon="12.8503785"><ele>851.0000000000001</ele><time>2026-03-28T14:26:21.527Z</time></trkpt><trkpt lat="42.1104845" lon="12.8504059"><ele>851.0</ele><time>2026-03-28T14:26:22.52Z</time></trkpt><trkpt lat="42.1104097" lon="12.8504383"><ele>852.0000000000001</ele><time>2026-03-28T14:26:23.543Z</time></trkpt><trkpt lat="42.1103377" lon="12.8504675"><ele>853.0</ele><time>2026-03-28T14:26:24.539Z</time></trkpt><trkpt lat="42.1102657" lon="12.8504963"><ele>854.0</ele><time>2026-03-28T14:26:25.541Z</time></trkpt><trkpt lat="42.1101914" lon="12.8505301"><ele>855.0</ele><time>2026-03-28T14:26:26.55Z</time></trkpt><trkpt lat="42.1101119" lon="12.8505729"><ele>856.0000000000001</ele><time>2026-03-28T14:26:27.532Z</time></trkpt><trkpt lat="42.1100284" lon="12.8506155"><ele>857.0</ele><time>2026-03-28T14:26:28.543Z</time></trkpt><trkpt lat="42.1099456" lon="12.8506605"><ele>859.1666666666667</ele><time>2026-03-28T14:26:29.55Z</time></trkpt><trkpt lat="42.1098671" lon="12.850698"><ele>861.3333333333334</ele><time>2026-03-28T14:26:30.53Z</time></trkpt><trkpt lat="42.1097941" lon="12.8507345"><ele>863.5</ele><time>2026-03-28T14:26:31.568Z</time></trkpt><trkpt lat="42.109729" lon="12.8507625"><ele>865.6666666666667</ele><time>2026-03-28T14:26:32.523Z</time></trkpt><trkpt lat="42.1096673" lon="12.8507853"><ele>867.8333333333334</ele><time>2026-03-28T14:26:33.539Z</time></trkpt><trkpt lat="42.1095515" lon="12.8508306"><ele>870.0</ele><time>2026-03-28T14:26:35.534Z</time></trkpt><trkpt lat="42.1094457" lon="12.850891"><ele>869.6666666666666</ele><time>2026-03-28T14:26:37.513Z</time></trkpt><trkpt lat="42.1093577" lon="12.8509686"><ele>869.3333333333333</ele><time>2026-03-28T14:26:39.514Z</time></trkpt><trkpt lat="42.109314" lon="12.8510697"><ele>869.0</ele><time>2026-03-28T14:26:41.519Z</time></trkpt><trkpt lat="42.1093214" lon="12.8511849"><ele>868.6666666666666</ele><time>2026-03-28T14:26:43.53Z</time></trkpt><trkpt lat="42.1093382" lon="12.8512871"><ele>868.3333333333333</ele><time>2026-03-28T14:26:45.532Z</time></trkpt><trkpt lat="42.109395" lon="12.8513341"><ele>868.0</ele><time>2026-03-28T14:26:47.511Z</time></trkpt><trkpt lat="42.1094876" lon="12.8513348"><ele>867.9999999999999</ele><time>2026-03-28T14:26:49.521Z</time></trkpt><trkpt lat="42.1096062" lon="12.8513355"><ele>868.0</ele><time>2026-03-28T14:26:51.527Z</time></trkpt><trkpt lat="42.1096714" lon="12.8513563"><ele>868.0</ele><time>2026-03-28T14:26:52.531Z</time></trkpt><trkpt lat="42.1097387" lon="12.8513824"><ele>868.0</ele><time>2026-03-28T14:26:53.534Z</time></trkpt><trkpt lat="42.1098057" lon="12.8514049"><ele>867.9999999999999</ele><time>2026-03-28T14:26:54.534Z</time></trkpt><trkpt lat="42.1098703" lon="12.8514144"><ele>868.0</ele><time>2026-03-28T14:26:55.519Z</time></trkpt><trkpt lat="42.1099358" lon="12.8514151"><ele>867.8333333333333</ele><time>2026-03-28T14:26:56.526Z</time></trkpt><trkpt lat="42.1099983" lon="12.8514031"><ele>867.6666666666666</ele><time>2026-03-28T14:26:57.544Z</time></trkpt><trkpt lat="42.1101177" lon="12.8513529"><ele>867.5</ele><time>2026-03-28T14:26:59.53Z</time></trkpt><trkpt lat="42.1101814" lon="12.8513182"><ele>867.3333333333333</ele><time>2026-03-28T14:27:00.524Z</time></trkpt><trkpt lat="42.11025" lon="12.851286"><ele>867.1666666666666</ele><time>2026-03-28T14:27:01.53Z</time></trkpt><trkpt lat="42.1103217" lon="12.8512562"><ele>867.0</ele><time>2026-03-28T14:27:02.533Z</time></trkpt><trkpt lat="42.110393" lon="12.8512265"><ele>867.0</ele><time>2026-03-28T14:27:03.532Z</time></trkpt><trkpt lat="42.1104604" lon="12.8511986"><ele>867.0</ele><time>2026-03-28T14:27:04.544Z</time></trkpt><trkpt lat="42.1105212" lon="12.8511757"><ele>867.0</ele><time>2026-03-28T14:27:05.527Z</time></trkpt><trkpt lat="42.1106298" lon="12.8511346"><ele>867.0</ele><time>2026-03-28T14:27:07.516Z</time></trkpt><trkpt lat="42.1107188" lon="12.8510919"><ele>867.0</ele><time>2026-03-28T14:27:09.549Z</time></trkpt><trkpt lat="42.1108124" lon="12.8510469"><ele>867.0</ele><time>2026-03-28T14:27:11.537Z</time></trkpt><trkpt lat="42.1109153" lon="12.8510017"><ele>867.8</ele><time>2026-03-28T14:27:13.528Z</time></trkpt><trkpt lat="42.1110361" lon="12.850979"><ele>868.6</ele><time>2026-03-28T14:27:15.541Z</time></trkpt><trkpt lat="42.1111649" lon="12.8509711"><ele>869.3999999999999</ele><time>2026-03-28T14:27:17.524Z</time></trkpt><trkpt lat="42.1112289" lon="12.8509561"><ele>870.1999999999999</ele><time>2026-03-28T14:27:18.523Z</time></trkpt><trkpt lat="42.1112932" lon="12.8509435"><ele>871.0</ele><time>2026-03-28T14:27:19.538Z</time></trkpt><trkpt lat="42.111415" lon="12.8509038"><ele>868.1428571428571</ele><time>2026-03-28T14:27:21.533Z</time></trkpt><trkpt lat="42.1114774" lon="12.8508768"><ele>865.2857142857142</ele><time>2026-03-28T14:27:22.528Z</time></trkpt><trkpt lat="42.1115432" lon="12.8508471"><ele>862.4285714285714</ele><time>2026-03-28T14:27:23.544Z</time></trkpt><trkpt lat="42.1116094" lon="12.850812"><ele>859.5714285714286</ele><time>2026-03-28T14:27:24.534Z</time></trkpt><trkpt lat="42.1116768" lon="12.8507803"><ele>856.7142857142858</ele><time>2026-03-28T14:27:25.535Z</time></trkpt><trkpt lat="42.111744" lon="12.8507578"><ele>853.8571428571429</ele><time>2026-03-28T14:27:26.532Z</time></trkpt><trkpt lat="42.1118085" lon="12.8507432"><ele>851.0</ele><time>2026-03-28T14:27:27.57Z</time></trkpt><trkpt lat="42.1118772" lon="12.850735"><ele>850.1999999999999</ele><time>2026-03-28T14:27:28.532Z</time></trkpt><trkpt lat="42.1119471" lon="12.8507214"><ele>849.4</ele><time>2026-03-28T14:27:29.54Z</time></trkpt><trkpt lat="42.1120105" lon="12.8507029"><ele>848.6</ele><time>2026-03-28T14:27:30.529Z</time></trkpt><trkpt lat="42.1121354" lon="12.8506683"><ele>847.8</ele><time>2026-03-28T14:27:32.532Z</time></trkpt><trkpt lat="42.1122581" lon="12.8506139"><ele>847.0</ele><time>2026-03-28T14:27:34.535Z</time></trkpt><trkpt lat="42.1123193" lon="12.8505792"><ele>847.0</ele><time>2026-03-28T14:27:35.528Z</time></trkpt><trkpt lat="42.1123761" lon="12.8505387"><ele>847.0</ele><time>2026-03-28T14:27:36.531Z</time></trkpt><trkpt lat="42.112436" lon="12.8505072"><ele>847.0</ele><time>2026-03-28T14:27:37.533Z</time></trkpt><trkpt lat="42.1125497" lon="12.8504253"><ele>847.0</ele><time>2026-03-28T14:27:39.548Z</time></trkpt><trkpt lat="42.1126075" lon="12.8503881"><ele>847.0</ele><time>2026-03-28T14:27:40.557Z</time></trkpt><trkpt lat="42.112731" lon="12.8503417"><ele>846.1428571428571</ele><time>2026-03-28T14:27:42.617Z</time></trkpt><trkpt lat="42.1128032" lon="12.8503271"><ele>845.2857142857142</ele><time>2026-03-28T14:27:43.535Z</time></trkpt><trkpt lat="42.1128786" lon="12.8503267"><ele>844.4285714285714</ele><time>2026-03-28T14:27:44.611Z</time></trkpt><trkpt lat="42.1129497" lon="12.8503316"><ele>843.5714285714286</ele><time>2026-03-28T14:27:45.625Z</time></trkpt><trkpt lat="42.1130141" lon="12.8503411"><ele>842.7142857142857</ele><time>2026-03-28T14:27:46.558Z</time></trkpt><trkpt lat="42.1130771" lon="12.8503635"><ele>841.8571428571429</ele><time>2026-03-28T14:27:47.585Z</time></trkpt><trkpt lat="42.1131418" lon="12.850387"><ele>841.0</ele><time>2026-03-28T14:27:48.528Z</time></trkpt><trkpt lat="42.1132084" lon="12.8504014"><ele>840.3333333333333</ele><time>2026-03-28T14:27:49.518Z</time></trkpt><trkpt lat="42.1132738" lon="12.8504167"><ele>839.6666666666666</ele><time>2026-03-28T14:27:50.512Z</time></trkpt><trkpt lat="42.1133385" lon="12.8504262"><ele>839.0</ele><time>2026-03-28T14:27:51.519Z</time></trkpt><trkpt lat="42.1134026" lon="12.8504317"><ele>838.3333333333333</ele><time>2026-03-28T14:27:52.536Z</time></trkpt><trkpt lat="42.1135224" lon="12.8504587"><ele>837.6666666666666</ele><time>2026-03-28T14:27:54.548Z</time></trkpt><trkpt lat="42.1136448" lon="12.8504948"><ele>837.0</ele><time>2026-03-28T14:27:56.544Z</time></trkpt><trkpt lat="42.1137664" lon="12.8505391"><ele>837.0</ele><time>2026-03-28T14:27:58.52Z</time></trkpt><trkpt lat="42.1138801" lon="12.850608"><ele>837.0</ele><time>2026-03-28T14:28:00.535Z</time></trkpt><trkpt lat="42.1139818" lon="12.850676"><ele>837.0</ele><time>2026-03-28T14:28:02.532Z</time></trkpt><trkpt lat="42.1140904" lon="12.8507278"><ele>837.0</ele><time>2026-03-28T14:28:04.519Z</time></trkpt><trkpt lat="42.1141892" lon="12.8507968"><ele>838.6</ele><time>2026-03-28T14:28:06.508Z</time></trkpt><trkpt lat="42.1142762" lon="12.8508765"><ele>840.2</ele><time>2026-03-28T14:28:08.518Z</time></trkpt><trkpt lat="42.1143541" lon="12.850969"><ele>841.8</ele><time>2026-03-28T14:28:10.516Z</time></trkpt><trkpt lat="42.114407" lon="12.8510778"><ele>843.4</ele><time>2026-03-28T14:28:12.523Z</time></trkpt><trkpt lat="42.114444" lon="12.8512378"><ele>845.0</ele><time>2026-03-28T14:28:14.523Z</time></trkpt><trkpt lat="42.1144608" lon="12.8513328"><ele>845.0</ele><time>2026-03-28T14:28:15.512Z</time></trkpt><trkpt lat="42.1144774" lon="12.851422"><ele>845.0</ele><time>2026-03-28T14:28:16.518Z</time></trkpt><trkpt lat="42.1144932" lon="12.8515727"><ele>845.0</ele><time>2026-03-28T14:28:18.537Z</time></trkpt><trkpt lat="42.1145246" lon="12.8517176"><ele>845.0</ele><time>2026-03-28T14:28:20.532Z</time></trkpt><trkpt lat="42.1145627" lon="12.8518279"><ele>845.0</ele><time>2026-03-28T14:28:22.529Z</time></trkpt><trkpt lat="42.1146143" lon="12.8518852"><ele>847.8</ele><time>2026-03-28T14:28:24.539Z</time></trkpt><trkpt lat="42.1147061" lon="12.8518828"><ele>850.6</ele><time>2026-03-28T14:28:26.522Z</time></trkpt><trkpt lat="42.1148269" lon="12.8518545"><ele>853.4000000000001</ele><time>2026-03-28T14:28:28.529Z</time></trkpt><trkpt lat="42.1149376" lon="12.8518223"><ele>856.2</ele><time>2026-03-28T14:28:30.53Z</time></trkpt><trkpt lat="42.1150453" lon="12.8517703"><ele>859.0</ele><time>2026-03-28T14:28:32.528Z</time></trkpt><trkpt lat="42.115104" lon="12.8517187"><ele>854.2857142857142</ele><time>2026-03-28T14:28:33.533Z</time></trkpt><trkpt lat="42.1151635" lon="12.8516697"><ele>849.5714285714286</ele><time>2026-03-28T14:28:34.537Z</time></trkpt><trkpt lat="42.1152225" lon="12.8516401"><ele>844.8571428571429</ele><time>2026-03-28T14:28:35.531Z</time></trkpt><trkpt lat="42.1152936" lon="12.8516222"><ele>840.1428571428571</ele><time>2026-03-28T14:28:36.511Z</time></trkpt><trkpt lat="42.1153669" lon="12.8515991"><ele>835.4285714285714</ele><time>2026-03-28T14:28:37.52Z</time></trkpt><trkpt lat="42.1154399" lon="12.8515732"><ele>830.7142857142857</ele><time>2026-03-28T14:28:38.513Z</time></trkpt><trkpt lat="42.1155149" lon="12.8515568"><ele>826.0</ele><time>2026-03-28T14:28:39.528Z</time></trkpt><trkpt lat="42.1155874" lon="12.8515435"><ele>826.0</ele><time>2026-03-28T14:28:40.521Z</time></trkpt><trkpt lat="42.1156569" lon="12.8515374"><ele>826.0</ele><time>2026-03-28T14:28:41.522Z</time></trkpt><trkpt lat="42.1157204" lon="12.8515354"><ele>826.0</ele><time>2026-03-28T14:28:42.528Z</time></trkpt><trkpt lat="42.1158464" lon="12.8515331"><ele>826.0</ele><time>2026-03-28T14:28:44.526Z</time></trkpt><trkpt lat="42.1159708" lon="12.8515488"><ele>826.0</ele><time>2026-03-28T14:28:46.522Z</time></trkpt><trkpt lat="42.1160817" lon="12.8515929"><ele>827.5999999999999</ele><time>2026-03-28T14:28:48.537Z</time></trkpt><trkpt lat="42.1161709" lon="12.8516767"><ele>829.2</ele><time>2026-03-28T14:28:50.524Z</time></trkpt><trkpt lat="42.1162311" lon="12.8517774"><ele>830.8</ele><time>2026-03-28T14:28:52.521Z</time></trkpt><trkpt lat="42.1162703" lon="12.8518635"><ele>832.4000000000001</ele><time>2026-03-28T14:28:54.525Z</time></trkpt><trkpt lat="42.1163106" lon="12.851994"><ele>834.0</ele><time>2026-03-28T14:28:56.529Z</time></trkpt><trkpt lat="42.1163181" lon="12.8520829"><ele>839.0</ele><time>2026-03-28T14:28:57.522Z</time></trkpt><trkpt lat="42.1163226" lon="12.8521696"><ele>844.0</ele><time>2026-03-28T14:28:58.541Z</time></trkpt><trkpt lat="42.1163152" lon="12.8523257"><ele>849.0000000000001</ele><time>2026-03-28T14:29:00.536Z</time></trkpt><trkpt lat="42.1163184" lon="12.8524616"><ele>854.0</ele><time>2026-03-28T14:29:02.54Z</time></trkpt><trkpt lat="42.1163337" lon="12.8525864"><ele>859.0</ele><time>2026-03-28T14:29:04.519Z</time></trkpt><trkpt lat="42.1163507" lon="12.8527056"><ele>860.4999999999999</ele><time>2026-03-28T14:29:06.521Z</time></trkpt><trkpt lat="42.1163599" lon="12.8528067"><ele>862.0</ele><time>2026-03-28T14:29:08.521Z</time></trkpt><trkpt lat="42.1163533" lon="12.8529161"><ele>863.5</ele><time>2026-03-28T14:29:10.534Z</time></trkpt><trkpt lat="42.1163306" lon="12.8530304"><ele>865.0</ele><time>2026-03-28T14:29:12.524Z</time></trkpt><trkpt lat="42.1163456" lon="12.8531329"><ele>866.4999999999999</ele><time>2026-03-28T14:29:14.525Z</time></trkpt><trkpt lat="42.1164177" lon="12.8532289"><ele>868.0</ele><time>2026-03-28T14:29:16.521Z</time></trkpt><trkpt lat="42.1165218" lon="12.8532954"><ele>864.7142857142857</ele><time>2026-03-28T14:29:18.541Z</time></trkpt><trkpt lat="42.1165925" lon="12.8533216"><ele>861.4285714285714</ele><time>2026-03-28T14:29:19.535Z</time></trkpt><trkpt lat="42.116672" lon="12.8533414"><ele>858.1428571428571</ele><time>2026-03-28T14:29:20.528Z</time></trkpt><trkpt lat="42.1167501" lon="12.8533652"><ele>854.8571428571429</ele><time>2026-03-28T14:29:21.539Z</time></trkpt><trkpt lat="42.1168219" lon="12.8533862"><ele>851.5714285714286</ele><time>2026-03-28T14:29:22.548Z</time></trkpt><trkpt lat="42.1168884" lon="12.8534073"><ele>848.2857142857142</ele><time>2026-03-28T14:29:23.531Z</time></trkpt><trkpt lat="42.1169585" lon="12.8534115"><ele>845.0</ele><time>2026-03-28T14:29:24.537Z</time></trkpt><trkpt lat="42.1170219" lon="12.8534081"><ele>844.9999999999999</ele><time>2026-03-28T14:29:25.532Z</time></trkpt><trkpt lat="42.1170875" lon="12.8534011"><ele>845.0</ele><time>2026-03-28T14:29:26.521Z</time></trkpt><trkpt lat="42.1171552" lon="12.853395"><ele>845.0</ele><time>2026-03-28T14:29:27.531Z</time></trkpt><trkpt lat="42.1172301" lon="12.8533876"><ele>845.0</ele><time>2026-03-28T14:29:28.527Z</time></trkpt><trkpt lat="42.1173037" lon="12.8533787"><ele>845.0</ele><time>2026-03-28T14:29:29.529Z</time></trkpt><trkpt lat="42.117378" lon="12.8533645"><ele>844.9999999999999</ele><time>2026-03-28T14:29:30.53Z</time></trkpt><trkpt lat="42.1174565" lon="12.8533485"><ele>845.0</ele><time>2026-03-28T14:29:31.53Z</time></trkpt><trkpt lat="42.1175249" lon="12.8533291"><ele>844.9999999999999</ele><time>2026-03-28T14:29:32.533Z</time></trkpt><trkpt lat="42.1175955" lon="12.8533069"><ele>845.0</ele><time>2026-03-28T14:29:33.528Z</time></trkpt><trkpt lat="42.1176649" lon="12.8532828"><ele>845.0</ele><time>2026-03-28T14:29:34.538Z</time></trkpt><trkpt lat="42.1177362" lon="12.8532614"><ele>845.0</ele><time>2026-03-28T14:29:35.522Z</time></trkpt><trkpt lat="42.1178067" lon="12.8532355"><ele>845.0</ele><time>2026-03-28T14:29:36.529Z</time></trkpt><trkpt lat="42.1178815" lon="12.8532075"><ele>844.9999999999999</ele><time>2026-03-28T14:29:37.526Z</time></trkpt><trkpt lat="42.1179537" lon="12.8531834"><ele>845.0</ele><time>2026-03-28T14:29:38.538Z</time></trkpt><trkpt lat="42.1180289" lon="12.8531591"><ele>845.0000000000001</ele><time>2026-03-28T14:29:39.529Z</time></trkpt><trkpt lat="42.1180937" lon="12.853135"><ele>845.0</ele><time>2026-03-28T14:29:40.534Z</time></trkpt><trkpt lat="42.1181626" lon="12.8531153"><ele>845.0</ele><time>2026-03-28T14:29:41.518Z</time></trkpt><trkpt lat="42.1182313" lon="12.8531039"><ele>845.0</ele><time>2026-03-28T14:29:42.511Z</time></trkpt><trkpt lat="42.1183021" lon="12.8530987"><ele>845.0000000000001</ele><time>2026-03-28T14:29:43.546Z</time></trkpt><trkpt lat="42.1183697" lon="12.8530989"><ele>845.0</ele><time>2026-03-28T14:29:44.531Z</time></trkpt><trkpt lat="42.1184826" lon="12.8531028"><ele>847.25</ele><time>2026-03-28T14:29:46.525Z</time></trkpt><trkpt lat="42.1185844" lon="12.8531301"><ele>849.5</ele><time>2026-03-28T14:29:48.526Z</time></trkpt><trkpt lat="42.1186916" lon="12.8532179"><ele>851.75</ele><time>2026-03-28T14:29:50.532Z</time></trkpt><trkpt lat="42.1187756" lon="12.8533375"><ele>854.0</ele><time>2026-03-28T14:29:52.533Z</time></trkpt><trkpt lat="42.1188612" lon="12.8534622"><ele>858.2</ele><time>2026-03-28T14:29:54.533Z</time></trkpt><trkpt lat="42.1189466" lon="12.8535812"><ele>862.4000000000001</ele><time>2026-03-28T14:29:56.521Z</time></trkpt><trkpt lat="42.1190473" lon="12.8536747"><ele>866.6</ele><time>2026-03-28T14:29:58.537Z</time></trkpt><trkpt lat="42.1191008" lon="12.853724"><ele>870.8</ele><time>2026-03-28T14:29:59.534Z</time></trkpt><trkpt lat="42.1191548" lon="12.8537693"><ele>875.0</ele><time>2026-03-28T14:30:00.524Z</time></trkpt><trkpt lat="42.1192512" lon="12.853858"><ele>875.0</ele><time>2026-03-28T14:30:02.529Z</time></trkpt><trkpt lat="42.1193818" lon="12.8539101"><ele>875.0</ele><time>2026-03-28T14:30:04.519Z</time></trkpt><trkpt lat="42.1194662" lon="12.8539135"><ele>875.0</ele><time>2026-03-28T14:30:05.527Z</time></trkpt><trkpt lat="42.1195525" lon="12.8539073"><ele>875.0</ele><time>2026-03-28T14:30:06.531Z</time></trkpt><trkpt lat="42.1196335" lon="12.8538952"><ele>875.0</ele><time>2026-03-28T14:30:07.53Z</time></trkpt><trkpt lat="42.1197119" lon="12.8538866"><ele>875.0000000000001</ele><time>2026-03-28T14:30:08.521Z</time></trkpt><trkpt lat="42.1197902" lon="12.8538807"><ele>875.0</ele><time>2026-03-28T14:30:09.529Z</time></trkpt><trkpt lat="42.1198836" lon="12.8538773"><ele>875.0</ele><time>2026-03-28T14:30:10.534Z</time></trkpt><trkpt lat="42.1199676" lon="12.8538941"><ele>875.0</ele><time>2026-03-28T14:30:11.534Z</time></trkpt><trkpt lat="42.1200438" lon="12.8539133"><ele>875.0000000000001</ele><time>2026-03-28T14:30:12.522Z</time></trkpt><trkpt lat="42.1201166" lon="12.8539403"><ele>875.0</ele><time>2026-03-28T14:30:13.532Z</time></trkpt><trkpt lat="42.120191" lon="12.8539692"><ele>873.7142857142857</ele><time>2026-03-28T14:30:14.539Z</time></trkpt><trkpt lat="42.1202671" lon="12.854001"><ele>872.4285714285714</ele><time>2026-03-28T14:30:15.528Z</time></trkpt><trkpt lat="42.1203403" lon="12.8540312"><ele>871.1428571428571</ele><time>2026-03-28T14:30:16.533Z</time></trkpt><trkpt lat="42.1204083" lon="12.8540594"><ele>869.8571428571429</ele><time>2026-03-28T14:30:17.531Z</time></trkpt><trkpt lat="42.1204761" lon="12.8540799"><ele>868.5714285714286</ele><time>2026-03-28T14:30:18.533Z</time></trkpt><trkpt lat="42.1205415" lon="12.8540954"><ele>867.2857142857142</ele><time>2026-03-28T14:30:19.523Z</time></trkpt><trkpt lat="42.1206068" lon="12.8541011"><ele>866.0</ele><time>2026-03-28T14:30:20.526Z</time></trkpt><trkpt lat="42.120674" lon="12.8540935"><ele>865.8333333333334</ele><time>2026-03-28T14:30:21.535Z</time></trkpt><trkpt lat="42.1207523" lon="12.8540739"><ele>865.6666666666667</ele><time>2026-03-28T14:30:22.528Z</time></trkpt><trkpt lat="42.1208282" lon="12.854043"><ele>865.5</ele><time>2026-03-28T14:30:23.54Z</time></trkpt><trkpt lat="42.120902" lon="12.8540041"><ele>865.3333333333333</ele><time>2026-03-28T14:30:24.532Z</time></trkpt><trkpt lat="42.1209685" lon="12.8539583"><ele>865.1666666666666</ele><time>2026-03-28T14:30:25.53Z</time></trkpt><trkpt lat="42.1210386" lon="12.8539044"><ele>865.0</ele><time>2026-03-28T14:30:26.52Z</time></trkpt><trkpt lat="42.1211048" lon="12.8538414"><ele>864.9999999999999</ele><time>2026-03-28T14:30:27.54Z</time></trkpt><trkpt lat="42.121165" lon="12.8537829"><ele>865.0</ele><time>2026-03-28T14:30:28.538Z</time></trkpt><trkpt lat="42.1212196" lon="12.8537236"><ele>865.0</ele><time>2026-03-28T14:30:29.517Z</time></trkpt><trkpt lat="42.1212731" lon="12.8536677"><ele>865.0</ele><time>2026-03-28T14:30:30.542Z</time></trkpt><trkpt lat="42.121368" lon="12.8535629"><ele>864.9999999999999</ele><time>2026-03-28T14:30:32.537Z</time></trkpt><trkpt lat="42.1214585" lon="12.8534732"><ele>865.0</ele><time>2026-03-28T14:30:34.541Z</time></trkpt><trkpt lat="42.1215638" lon="12.8533837"><ele>863.6666666666666</ele><time>2026-03-28T14:30:36.525Z</time></trkpt><trkpt lat="42.1216252" lon="12.8533434"><ele>862.3333333333333</ele><time>2026-03-28T14:30:37.521Z</time></trkpt><trkpt lat="42.1216838" lon="12.8533049"><ele>861.0</ele><time>2026-03-28T14:30:38.516Z</time></trkpt><trkpt lat="42.1217914" lon="12.8532409"><ele>859.6666666666667</ele><time>2026-03-28T14:30:40.516Z</time></trkpt><trkpt lat="42.1219084" lon="12.8531788"><ele>858.3333333333334</ele><time>2026-03-28T14:30:42.515Z</time></trkpt><trkpt lat="42.1219733" lon="12.8531505"><ele>857.0</ele><time>2026-03-28T14:30:43.52Z</time></trkpt><trkpt lat="42.1220404" lon="12.8531329"><ele>857.0</ele><time>2026-03-28T14:30:44.521Z</time></trkpt><trkpt lat="42.122158" lon="12.8531378"><ele>857.0</ele><time>2026-03-28T14:30:46.532Z</time></trkpt><trkpt lat="42.1222636" lon="12.85317"><ele>857.0</ele><time>2026-03-28T14:30:48.506Z</time></trkpt><trkpt lat="42.1223629" lon="12.8532191"><ele>857.0</ele><time>2026-03-28T14:30:50.539Z</time></trkpt><trkpt lat="42.1224722" lon="12.8532739"><ele>857.0</ele><time>2026-03-28T14:30:52.528Z</time></trkpt><trkpt lat="42.1225372" lon="12.8532987"><ele>858.5714285714286</ele><time>2026-03-28T14:30:53.526Z</time></trkpt><trkpt lat="42.1226068" lon="12.8533188"><ele>860.1428571428571</ele><time>2026-03-28T14:30:54.525Z</time></trkpt><trkpt lat="42.1226789" lon="12.8533395"><ele>861.7142857142858</ele><time>2026-03-28T14:30:55.53Z</time></trkpt><trkpt lat="42.1227511" lon="12.8533603"><ele>863.2857142857142</ele><time>2026-03-28T14:30:56.519Z</time></trkpt><trkpt lat="42.1228248" lon="12.8533837"><ele>864.8571428571429</ele><time>2026-03-28T14:30:57.56Z</time></trkpt><trkpt lat="42.1228932" lon="12.8534045"><ele>866.4285714285714</ele><time>2026-03-28T14:30:58.529Z</time></trkpt><trkpt lat="42.1229665" lon="12.8534241"><ele>868.0</ele><time>2026-03-28T14:30:59.543Z</time></trkpt><trkpt lat="42.1230329" lon="12.8534392"><ele>867.9999999999999</ele><time>2026-03-28T14:31:00.529Z</time></trkpt><trkpt lat="42.1231023" lon="12.8534442"><ele>868.0</ele><time>2026-03-28T14:31:01.528Z</time></trkpt><trkpt lat="42.1231786" lon="12.8534465"><ele>868.0</ele><time>2026-03-28T14:31:02.531Z</time></trkpt><trkpt lat="42.1232626" lon="12.8534428"><ele>868.0</ele><time>2026-03-28T14:31:03.536Z</time></trkpt><trkpt lat="42.1233431" lon="12.853439"><ele>867.9999999999999</ele><time>2026-03-28T14:31:04.52Z</time></trkpt><trkpt lat="42.1234336" lon="12.8534323"><ele>868.0</ele><time>2026-03-28T14:31:05.528Z</time></trkpt><trkpt lat="42.1235189" lon="12.8534194"><ele>868.8333333333333</ele><time>2026-03-28T14:31:06.532Z</time></trkpt><trkpt lat="42.123603" lon="12.8534015"><ele>869.6666666666666</ele><time>2026-03-28T14:31:07.536Z</time></trkpt><trkpt lat="42.1236857" lon="12.8533792"><ele>870.5</ele><time>2026-03-28T14:31:08.539Z</time></trkpt><trkpt lat="42.123768" lon="12.853351"><ele>871.3333333333333</ele><time>2026-03-28T14:31:09.551Z</time></trkpt><trkpt lat="42.1238399" lon="12.8533156"><ele>872.1666666666666</ele><time>2026-03-28T14:31:10.529Z</time></trkpt><trkpt lat="42.1239125" lon="12.8532785"><ele>873.0</ele><time>2026-03-28T14:31:11.536Z</time></trkpt><trkpt lat="42.1239885" lon="12.8532431"><ele>875.8571428571428</ele><time>2026-03-28T14:31:12.562Z</time></trkpt><trkpt lat="42.124065" lon="12.8532101"><ele>878.7142857142857</ele><time>2026-03-28T14:31:13.539Z</time></trkpt><trkpt lat="42.1241357" lon="12.8531832"><ele>881.5714285714286</ele><time>2026-03-28T14:31:14.527Z</time></trkpt><trkpt lat="42.1241993" lon="12.8531563"><ele>884.4285714285713</ele><time>2026-03-28T14:31:15.523Z</time></trkpt><trkpt lat="42.1242609" lon="12.8531206"><ele>887.2857142857143</ele><time>2026-03-28T14:31:16.524Z</time></trkpt><trkpt lat="42.1243266" lon="12.8530861"><ele>890.1428571428571</ele><time>2026-03-28T14:31:17.527Z</time></trkpt><trkpt lat="42.1243979" lon="12.8530528"><ele>893.0</ele><time>2026-03-28T14:31:18.532Z</time></trkpt><trkpt lat="42.1244717" lon="12.8530205"><ele>893.0</ele><time>2026-03-28T14:31:19.522Z</time></trkpt><trkpt lat="42.1245349" lon="12.8529888"><ele>893.0</ele><time>2026-03-28T14:31:20.517Z</time></trkpt><trkpt lat="42.1245986" lon="12.8529622"><ele>893.0</ele><time>2026-03-28T14:31:21.537Z</time></trkpt><trkpt lat="42.1246625" lon="12.8529392"><ele>893.0</ele><time>2026-03-28T14:31:22.521Z</time></trkpt><trkpt lat="42.1247309" lon="12.8529208"><ele>893.0</ele><time>2026-03-28T14:31:23.542Z</time></trkpt><trkpt lat="42.1248033" lon="12.8529096"><ele>893.0</ele><time>2026-03-28T14:31:24.533Z</time></trkpt><trkpt lat="42.1248788" lon="12.8529033"><ele>893.0</ele><time>2026-03-28T14:31:25.519Z</time></trkpt><trkpt lat="42.124955" lon="12.8528951"><ele>895.0000000000001</ele><time>2026-03-28T14:31:26.532Z</time></trkpt><trkpt lat="42.1250286" lon="12.8528905"><ele>897.0</ele><time>2026-03-28T14:31:27.533Z</time></trkpt><trkpt lat="42.1250989" lon="12.8528975"><ele>899.0</ele><time>2026-03-28T14:31:28.539Z</time></trkpt><trkpt lat="42.1251689" lon="12.8529217"><ele>901.0</ele><time>2026-03-28T14:31:29.545Z</time></trkpt><trkpt lat="42.1252343" lon="12.8529558"><ele>903.0000000000001</ele><time>2026-03-28T14:31:30.533Z</time></trkpt><trkpt lat="42.1252921" lon="12.8529895"><ele>905.0</ele><time>2026-03-28T14:31:31.566Z</time></trkpt><trkpt lat="42.1253965" lon="12.8530376"><ele>905.0</ele><time>2026-03-28T14:31:33.532Z</time></trkpt><trkpt lat="42.125509" lon="12.8530416"><ele>905.0</ele><time>2026-03-28T14:31:35.536Z</time></trkpt><trkpt lat="42.1256032" lon="12.8530386"><ele>905.0</ele><time>2026-03-28T14:31:37.561Z</time></trkpt><trkpt lat="42.1257136" lon="12.8530493"><ele>905.0</ele><time>2026-03-28T14:31:39.546Z</time></trkpt><trkpt lat="42.1258249" lon="12.8530672"><ele>905.0</ele><time>2026-03-28T14:31:41.543Z</time></trkpt><trkpt lat="42.1259275" lon="12.8530813"><ele>904.1666666666667</ele><time>2026-03-28T14:31:43.525Z</time></trkpt><trkpt lat="42.1260227" lon="12.8531215"><ele>903.3333333333334</ele><time>2026-03-28T14:31:45.524Z</time></trkpt><trkpt lat="42.1261036" lon="12.8531851"><ele>902.5</ele><time>2026-03-28T14:31:47.519Z</time></trkpt><trkpt lat="42.1261569" lon="12.8532459"><ele>901.6666666666667</ele><time>2026-03-28T14:31:49.521Z</time></trkpt><trkpt lat="42.1261476" lon="12.8533545"><ele>900.8333333333334</ele><time>2026-03-28T14:32:36.529Z</time></trkpt><trkpt lat="42.1261288" lon="12.8534419"><ele>900.0</ele><time>2026-03-28T14:32:38.547Z</time></trkpt><trkpt lat="42.1261101" lon="12.8535381"><ele>904.6</ele><time>2026-03-28T14:32:40.52Z</time></trkpt><trkpt lat="42.126093" lon="12.8536452"><ele>909.2</ele><time>2026-03-28T14:32:42.538Z</time></trkpt><trkpt lat="42.1261028" lon="12.8537672"><ele>913.8</ele><time>2026-03-28T14:32:44.528Z</time></trkpt><trkpt lat="42.126117" lon="12.8538919"><ele>918.4</ele><time>2026-03-28T14:32:46.519Z</time></trkpt><trkpt lat="42.1261243" lon="12.8540135"><ele>923.0</ele><time>2026-03-28T14:32:48.536Z</time></trkpt><trkpt lat="42.1261188" lon="12.8541508"><ele>923.0</ele><time>2026-03-28T14:32:50.524Z</time></trkpt><trkpt lat="42.1261118" lon="12.854285"><ele>923.0</ele><time>2026-03-28T14:32:52.549Z</time></trkpt><trkpt lat="42.1234485" lon="12.8591452"><ele>928.25</ele><time>2026-03-28T14:34:43.53Z</time></trkpt><trkpt lat="42.1234046" lon="12.8592699"><ele>933.5</ele><time>2026-03-28T14:34:45.523Z</time></trkpt><trkpt lat="42.1233726" lon="12.859416"><ele>938.75</ele><time>2026-03-28T14:34:47.517Z</time></trkpt><trkpt lat="42.1234313" lon="12.8597157"><ele>944.0</ele><time>2026-03-28T14:34:51.523Z</time></trkpt><trkpt lat="42.1234736" lon="12.8598664"><ele>944.0000000000001</ele><time>2026-03-28T14:34:53.535Z</time></trkpt><trkpt lat="42.12351" lon="12.8600141"><ele>944.0</ele><time>2026-03-28T14:34:55.512Z</time></trkpt><trkpt lat="42.1235488" lon="12.8601387"><ele>944.0</ele><time>2026-03-28T14:34:57.526Z</time></trkpt><trkpt lat="42.1235777" lon="12.86022"><ele>944.0</ele><time>2026-03-28T14:35:00.529Z</time></trkpt><trkpt lat="42.1236166" lon="12.8602952"><ele>944.0000000000001</ele><time>2026-03-28T14:35:07.53Z</time></trkpt><trkpt lat="42.1236426" lon="12.8603801"><ele>944.0</ele><time>2026-03-28T14:35:09.533Z</time></trkpt><trkpt lat="42.12371" lon="12.860659"><ele>943.8333333333334</ele><time>2026-03-28T14:35:13.525Z</time></trkpt><trkpt lat="42.123736" lon="12.8607875"><ele>943.6666666666667</ele><time>2026-03-28T14:35:15.515Z</time></trkpt><trkpt lat="42.1237565" lon="12.860894"><ele>943.5</ele><time>2026-03-28T14:35:17.52Z</time></trkpt><trkpt lat="42.123769" lon="12.8609945"><ele>943.3333333333333</ele><time>2026-03-28T14:35:19.527Z</time></trkpt><trkpt lat="42.1237924" lon="12.8610975"><ele>943.1666666666666</ele><time>2026-03-28T14:35:21.529Z</time></trkpt><trkpt lat="42.1237928" lon="12.8612025"><ele>943.0</ele><time>2026-03-28T14:35:23.529Z</time></trkpt><trkpt lat="42.1238019" lon="12.8612999"><ele>943.0</ele><time>2026-03-28T14:35:25.525Z</time></trkpt><trkpt lat="42.123807" lon="12.8614115"><ele>943.0</ele><time>2026-03-28T14:35:27.526Z</time></trkpt><trkpt lat="42.1238062" lon="12.861528"><ele>943.0</ele><time>2026-03-28T14:35:29.526Z</time></trkpt><trkpt lat="42.123803" lon="12.8616382"><ele>943.0</ele><time>2026-03-28T14:35:31.526Z</time></trkpt><trkpt lat="42.1238466" lon="12.8618747"><ele>943.0</ele><time>2026-03-28T14:35:35.528Z</time></trkpt><trkpt lat="42.1238725" lon="12.8620147"><ele>939.1666666666666</ele><time>2026-03-28T14:35:37.534Z</time></trkpt><trkpt lat="42.1239023" lon="12.8621334"><ele>935.3333333333333</ele><time>2026-03-28T14:35:39.535Z</time></trkpt><trkpt lat="42.1239051" lon="12.8622275"><ele>931.5</ele><time>2026-03-28T14:35:41.521Z</time></trkpt><trkpt lat="42.123887" lon="12.8623271"><ele>927.6666666666667</ele><time>2026-03-28T14:35:43.523Z</time></trkpt><trkpt lat="42.1238605" lon="12.8624234"><ele>923.8333333333334</ele><time>2026-03-28T14:35:45.533Z</time></trkpt><trkpt lat="42.123818" lon="12.8624896"><ele>920.0</ele><time>2026-03-28T14:35:47.541Z</time></trkpt><trkpt lat="42.1237481" lon="12.8625532"><ele>920.0</ele><time>2026-03-28T14:35:50.531Z</time></trkpt><trkpt lat="42.1236724" lon="12.8626027"><ele>920.0</ele><time>2026-03-28T14:35:53.527Z</time></trkpt><trkpt lat="42.1235208" lon="12.86261"><ele>920.0</ele><time>2026-03-28T14:36:14.534Z</time></trkpt><trkpt lat="42.1233908" lon="12.8626395"><ele>920.0</ele><time>2026-03-28T14:36:22.536Z</time></trkpt><trkpt lat="42.1233081" lon="12.8626427"><ele>918.6</ele><time>2026-03-28T14:36:25.521Z</time></trkpt><trkpt lat="42.1232258" lon="12.8626514"><ele>917.2</ele><time>2026-03-28T14:36:28.535Z</time></trkpt><trkpt lat="42.1231326" lon="12.8626487"><ele>915.8</ele><time>2026-03-28T14:36:31.539Z</time></trkpt><trkpt lat="42.1230519" lon="12.8626602"><ele>914.4</ele><time>2026-03-28T14:36:34.531Z</time></trkpt><trkpt lat="42.1229798" lon="12.8627075"><ele>913.0</ele><time>2026-03-28T14:36:37.517Z</time></trkpt><trkpt lat="42.1228788" lon="12.8628487"><ele>912.9999999999999</ele><time>2026-03-28T14:36:42.513Z</time></trkpt><trkpt lat="42.1228526" lon="12.8629376"><ele>913.0</ele><time>2026-03-28T14:36:44.508Z</time></trkpt><trkpt lat="42.1228097" lon="12.8630301"><ele>913.0</ele><time>2026-03-28T14:36:46.532Z</time></trkpt><trkpt lat="42.1227788" lon="12.8631314"><ele>913.0</ele><time>2026-03-28T14:36:48.519Z</time></trkpt><trkpt lat="42.1227514" lon="12.8632166"><ele>912.9999999999999</ele><time>2026-03-28T14:36:50.518Z</time></trkpt><trkpt lat="42.122726" lon="12.8633065"><ele>913.0</ele><time>2026-03-28T14:36:52.519Z</time></trkpt><trkpt lat="42.1226903" lon="12.8634262"><ele>910.0</ele><time>2026-03-28T14:36:55.529Z</time></trkpt><trkpt lat="42.1226658" lon="12.8635269"><ele>907.0</ele><time>2026-03-28T14:36:57.519Z</time></trkpt><trkpt lat="42.1226403" lon="12.8636381"><ele>904.0</ele><time>2026-03-28T14:36:59.551Z</time></trkpt><trkpt lat="42.1225986" lon="12.8638687"><ele>901.0</ele><time>2026-03-28T14:37:03.524Z</time></trkpt><trkpt lat="42.1225527" lon="12.8639748"><ele>898.0</ele><time>2026-03-28T14:37:05.542Z</time></trkpt><trkpt lat="42.1225051" lon="12.8640317"><ele>897.9999999999999</ele><time>2026-03-28T14:37:07.526Z</time></trkpt><trkpt lat="42.1224215" lon="12.8641028"><ele>898.0</ele><time>2026-03-28T14:37:10.526Z</time></trkpt><trkpt lat="42.1223237" lon="12.8641475"><ele>898.0</ele><time>2026-03-28T14:37:12.537Z</time></trkpt><trkpt lat="42.122245" lon="12.864185"><ele>898.0</ele><time>2026-03-28T14:37:14.544Z</time></trkpt><trkpt lat="42.1221745" lon="12.864223"><ele>897.9999999999999</ele><time>2026-03-28T14:37:16.534Z</time></trkpt><trkpt lat="42.1221148" lon="12.8642566"><ele>898.0</ele><time>2026-03-28T14:37:18.541Z</time></trkpt><trkpt lat="42.1220538" lon="12.86432"><ele>899.0</ele><time>2026-03-28T14:37:21.509Z</time></trkpt><trkpt lat="42.1219432" lon="12.8644978"><ele>900.0</ele><time>2026-03-28T14:37:26.531Z</time></trkpt><trkpt lat="42.1218819" lon="12.8645795"><ele>901.0</ele><time>2026-03-28T14:37:28.528Z</time></trkpt><trkpt lat="42.1218112" lon="12.8646804"><ele>902.0</ele><time>2026-03-28T14:37:30.558Z</time></trkpt><trkpt lat="42.1217402" lon="12.8647699"><ele>902.0</ele><time>2026-03-28T14:37:32.528Z</time></trkpt><trkpt lat="42.1216655" lon="12.8648488"><ele>902.0</ele><time>2026-03-28T14:37:34.534Z</time></trkpt><trkpt lat="42.1215977" lon="12.8649601"><ele>902.0</ele><time>2026-03-28T14:37:37.557Z</time></trkpt><trkpt lat="42.121556" lon="12.865085"><ele>902.0</ele><time>2026-03-28T14:37:39.554Z</time></trkpt><trkpt lat="42.1215308" lon="12.8652278"><ele>902.0</ele><time>2026-03-28T14:37:41.538Z</time></trkpt><trkpt lat="42.1215299" lon="12.8653709"><ele>902.6</ele><time>2026-03-28T14:37:43.53Z</time></trkpt><trkpt lat="42.1214884" lon="12.8655992"><ele>903.2</ele><time>2026-03-28T14:37:47.534Z</time></trkpt><trkpt lat="42.1214612" lon="12.8656898"><ele>903.8</ele><time>2026-03-28T14:37:59.522Z</time></trkpt><trkpt lat="42.121427" lon="12.865794"><ele>904.4</ele><time>2026-03-28T14:38:02.512Z</time></trkpt><trkpt lat="42.1213917" lon="12.8659001"><ele>905.0</ele><time>2026-03-28T14:38:06.514Z</time></trkpt><trkpt lat="42.1212923" lon="12.866023"><ele>905.0</ele><time>2026-03-28T14:38:10.528Z</time></trkpt><trkpt lat="42.1212263" lon="12.8661023"><ele>905.0</ele><time>2026-03-28T14:38:13.532Z</time></trkpt><trkpt lat="42.1211838" lon="12.8661668"><ele>905.0</ele><time>2026-03-28T14:38:16.527Z</time></trkpt><trkpt lat="42.1211279" lon="12.8662282"><ele>905.0</ele><time>2026-03-28T14:38:53.523Z</time></trkpt><trkpt lat="42.1210494" lon="12.8664287"><ele>905.0</ele><time>2026-03-28T14:38:59.538Z</time></trkpt><trkpt lat="42.1210677" lon="12.8665243"><ele>905.0000000000001</ele><time>2026-03-28T14:39:04.511Z</time></trkpt><trkpt lat="42.1210969" lon="12.8666267"><ele>905.0</ele><time>2026-03-28T14:39:07.536Z</time></trkpt><trkpt lat="42.1211295" lon="12.8667317"><ele>905.0</ele><time>2026-03-28T14:39:10.522Z</time></trkpt><trkpt lat="42.1211593" lon="12.8668388"><ele>905.0</ele><time>2026-03-28T14:39:13.529Z</time></trkpt><trkpt lat="42.1211829" lon="12.8669277"><ele>905.0000000000001</ele><time>2026-03-28T14:39:15.549Z</time></trkpt><trkpt lat="42.1211682" lon="12.8670679"><ele>905.0</ele><time>2026-03-28T14:42:37.522Z</time></trkpt><trkpt lat="42.1211512" lon="12.8669674"><ele>905.0000000000001</ele><time>2026-03-28T14:42:47.507Z</time></trkpt><trkpt lat="42.1211396" lon="12.8668836"><ele>905.0</ele><time>2026-03-28T14:42:49.527Z</time></trkpt><trkpt lat="42.121118" lon="12.8667833"><ele>905.0</ele><time>2026-03-28T14:42:52.515Z</time></trkpt><trkpt lat="42.1210846" lon="12.8667024"><ele>905.0</ele><time>2026-03-28T14:42:55.525Z</time></trkpt><trkpt lat="42.1210593" lon="12.866622"><ele>905.0000000000001</ele><time>2026-03-28T14:42:58.519Z</time></trkpt><trkpt lat="42.1210486" lon="12.8665059"><ele>905.0</ele><time>2026-03-28T14:43:01.527Z</time></trkpt><trkpt lat="42.1210683" lon="12.8663732"><ele>905.0000000000001</ele><time>2026-03-28T14:43:04.558Z</time></trkpt><trkpt lat="42.1211057" lon="12.866286"><ele>905.0</ele><time>2026-03-28T14:43:06.509Z</time></trkpt><trkpt lat="42.121156" lon="12.8662046"><ele>905.0</ele><time>2026-03-28T14:43:08.515Z</time></trkpt><trkpt lat="42.121203" lon="12.866135"><ele>905.0</ele><time>2026-03-28T14:43:10.521Z</time></trkpt><trkpt lat="42.1212564" lon="12.8660492"><ele>905.0000000000001</ele><time>2026-03-28T14:43:12.53Z</time></trkpt><trkpt lat="42.1213191" lon="12.8659588"><ele>905.0</ele><time>2026-03-28T14:43:14.517Z</time></trkpt><trkpt lat="42.1213736" lon="12.8658632"><ele>906.6666666666667</ele><time>2026-03-28T14:43:16.517Z</time></trkpt><trkpt lat="42.1214278" lon="12.8657774"><ele>908.3333333333334</ele><time>2026-03-28T14:43:18.514Z</time></trkpt><trkpt lat="42.1214502" lon="12.8656746"><ele>910.0</ele><time>2026-03-28T14:43:20.511Z</time></trkpt><trkpt lat="42.1214636" lon="12.8655755"><ele>911.6666666666667</ele><time>2026-03-28T14:43:22.521Z</time></trkpt><trkpt lat="42.1214812" lon="12.8654886"><ele>913.3333333333334</ele><time>2026-03-28T14:43:24.518Z</time></trkpt><trkpt lat="42.1215013" lon="12.8653743"><ele>915.0</ele><time>2026-03-28T14:43:27.524Z</time></trkpt><trkpt lat="42.1215133" lon="12.8652704"><ele>915.0</ele><time>2026-03-28T14:43:30.539Z</time></trkpt><trkpt lat="42.1215481" lon="12.8651951"><ele>915.0</ele><time>2026-03-28T14:43:32.531Z</time></trkpt><trkpt lat="42.1215845" lon="12.8651104"><ele>915.0</ele><time>2026-03-28T14:43:34.539Z</time></trkpt><trkpt lat="42.1216208" lon="12.865031"><ele>915.0</ele><time>2026-03-28T14:43:36.521Z</time></trkpt><trkpt lat="42.1216723" lon="12.8649546"><ele>915.0</ele><time>2026-03-28T14:43:38.543Z</time></trkpt><trkpt lat="42.1217436" lon="12.8648752"><ele>915.0</ele><time>2026-03-28T14:43:40.521Z</time></trkpt><trkpt lat="42.121819" lon="12.8647933"><ele>914.8333333333334</ele><time>2026-03-28T14:43:42.51Z</time></trkpt><trkpt lat="42.121876" lon="12.8646992"><ele>914.6666666666667</ele><time>2026-03-28T14:43:44.514Z</time></trkpt><trkpt lat="42.1219337" lon="12.8646097"><ele>914.5</ele><time>2026-03-28T14:43:46.544Z</time></trkpt><trkpt lat="42.1219845" lon="12.8645245"><ele>914.3333333333334</ele><time>2026-03-28T14:43:48.53Z</time></trkpt><trkpt lat="42.1220362" lon="12.8644444"><ele>914.1666666666667</ele><time>2026-03-28T14:43:50.524Z</time></trkpt><trkpt lat="42.1220972" lon="12.8643524"><ele>914.0</ele><time>2026-03-28T14:43:52.546Z</time></trkpt><trkpt lat="42.1221711" lon="12.8642605"><ele>914.0</ele><time>2026-03-28T14:43:54.529Z</time></trkpt><trkpt lat="42.1222639" lon="12.8642094"><ele>914.0000000000001</ele><time>2026-03-28T14:43:56.52Z</time></trkpt><trkpt lat="42.1223538" lon="12.864153"><ele>914.0000000000001</ele><time>2026-03-28T14:43:58.538Z</time></trkpt><trkpt lat="42.122426" lon="12.8641023"><ele>914.0</ele><time>2026-03-28T14:44:00.549Z</time></trkpt><trkpt lat="42.1225136" lon="12.8640342"><ele>914.0</ele><time>2026-03-28T14:44:02.528Z</time></trkpt><trkpt lat="42.1225754" lon="12.8639588"><ele>913.8333333333334</ele><time>2026-03-28T14:44:04.519Z</time></trkpt><trkpt lat="42.1226085" lon="12.8638761"><ele>913.6666666666667</ele><time>2026-03-28T14:44:06.53Z</time></trkpt><trkpt lat="42.1226301" lon="12.8637728"><ele>913.5</ele><time>2026-03-28T14:44:08.535Z</time></trkpt><trkpt lat="42.1226602" lon="12.8636636"><ele>913.3333333333333</ele><time>2026-03-28T14:44:10.528Z</time></trkpt><trkpt lat="42.1226937" lon="12.8635413"><ele>913.1666666666666</ele><time>2026-03-28T14:44:12.521Z</time></trkpt><trkpt lat="42.1227107" lon="12.8633944"><ele>913.0</ele><time>2026-03-28T14:44:14.53Z</time></trkpt><trkpt lat="42.1227389" lon="12.8632581"><ele>912.9999999999999</ele><time>2026-03-28T14:44:16.527Z</time></trkpt><trkpt lat="42.1227682" lon="12.863131"><ele>913.0</ele><time>2026-03-28T14:44:18.544Z</time></trkpt><trkpt lat="42.1228178" lon="12.8630082"><ele>913.0</ele><time>2026-03-28T14:44:20.527Z</time></trkpt><trkpt lat="42.1228668" lon="12.8628876"><ele>913.0</ele><time>2026-03-28T14:44:22.545Z</time></trkpt><trkpt lat="42.1229165" lon="12.8628037"><ele>912.9999999999999</ele><time>2026-03-28T14:44:24.535Z</time></trkpt><trkpt lat="42.1229525" lon="12.8627311"><ele>913.0</ele><time>2026-03-28T14:44:26.572Z</time></trkpt><trkpt lat="42.12303" lon="12.8626493"><ele>914.4</ele><time>2026-03-28T14:44:29.539Z</time></trkpt><trkpt lat="42.1231031" lon="12.8626115"><ele>915.8</ele><time>2026-03-28T14:44:31.576Z</time></trkpt><trkpt lat="42.1231868" lon="12.8625967"><ele>917.2</ele><time>2026-03-28T14:44:33.52Z</time></trkpt><trkpt lat="42.1232702" lon="12.8625834"><ele>918.6</ele><time>2026-03-28T14:44:35.549Z</time></trkpt><trkpt lat="42.1233571" lon="12.8625669"><ele>920.0</ele><time>2026-03-28T14:44:37.538Z</time></trkpt><trkpt lat="42.1234735" lon="12.8625531"><ele>920.0</ele><time>2026-03-28T14:44:39.526Z</time></trkpt><trkpt lat="42.1235372" lon="12.8625438"><ele>920.0</ele><time>2026-03-28T14:44:40.518Z</time></trkpt><trkpt lat="42.1236505" lon="12.8625264"><ele>920.0</ele><time>2026-03-28T14:44:42.517Z</time></trkpt><trkpt lat="42.1237659" lon="12.8624704"><ele>920.0</ele><time>2026-03-28T14:44:44.522Z</time></trkpt><trkpt lat="42.123837" lon="12.8623855"><ele>920.0</ele><time>2026-03-28T14:44:46.517Z</time></trkpt><trkpt lat="42.1238516" lon="12.862296"><ele>920.0000000000001</ele><time>2026-03-28T14:44:53.53Z</time></trkpt><trkpt lat="42.1238617" lon="12.8621996"><ele>920.0</ele><time>2026-03-28T14:44:55.539Z</time></trkpt><trkpt lat="42.1238504" lon="12.8620986"><ele>920.0</ele><time>2026-03-28T14:44:58.519Z</time></trkpt><trkpt lat="42.1238157" lon="12.8620042"><ele>920.0</ele><time>2026-03-28T14:45:00.528Z</time></trkpt><trkpt lat="42.1237884" lon="12.8618705"><ele>920.0000000000001</ele><time>2026-03-28T14:45:02.52Z</time></trkpt><trkpt lat="42.1237621" lon="12.8617399"><ele>920.0</ele><time>2026-03-28T14:45:04.537Z</time></trkpt><trkpt lat="42.1237358" lon="12.8616248"><ele>923.8333333333334</ele><time>2026-03-28T14:45:06.522Z</time></trkpt><trkpt lat="42.1237219" lon="12.8615389"><ele>927.6666666666667</ele><time>2026-03-28T14:45:08.535Z</time></trkpt><trkpt lat="42.12372" lon="12.8614457"><ele>931.5</ele><time>2026-03-28T14:45:10.516Z</time></trkpt><trkpt lat="42.1237178" lon="12.8613388"><ele>935.3333333333333</ele><time>2026-03-28T14:45:12.512Z</time></trkpt><trkpt lat="42.1237085" lon="12.8612286"><ele>939.1666666666666</ele><time>2026-03-28T14:45:14.518Z</time></trkpt><trkpt lat="42.1236927" lon="12.8611328"><ele>943.0</ele><time>2026-03-28T14:45:16.539Z</time></trkpt><trkpt lat="42.1236591" lon="12.8609918"><ele>944.3333333333333</ele><time>2026-03-28T14:45:18.536Z</time></trkpt><trkpt lat="42.1236243" lon="12.8608487"><ele>945.6666666666666</ele><time>2026-03-28T14:45:20.554Z</time></trkpt><trkpt lat="42.1235807" lon="12.8607242"><ele>947.0</ele><time>2026-03-28T14:45:22.532Z</time></trkpt><trkpt lat="42.1235625" lon="12.8606087"><ele>948.3333333333333</ele><time>2026-03-28T14:45:24.538Z</time></trkpt><trkpt lat="42.1235389" lon="12.860513"><ele>949.6666666666666</ele><time>2026-03-28T14:45:26.52Z</time></trkpt><trkpt lat="42.123517" lon="12.8604287"><ele>951.0</ele><time>2026-03-28T14:45:28.612Z</time></trkpt><trkpt lat="42.1234744" lon="12.8603027"><ele>951.0</ele><time>2026-03-28T14:45:30.545Z</time></trkpt><trkpt lat="42.1234504" lon="12.8602104"><ele>951.0</ele><time>2026-03-28T14:45:32.525Z</time></trkpt><trkpt lat="42.1234373" lon="12.8601222"><ele>951.0</ele><time>2026-03-28T14:45:34.539Z</time></trkpt><trkpt lat="42.1234022" lon="12.8600295"><ele>951.0</ele><time>2026-03-28T14:45:36.519Z</time></trkpt><trkpt lat="42.1233731" lon="12.8599456"><ele>951.0</ele><time>2026-03-28T14:45:38.517Z</time></trkpt><trkpt lat="42.1233285" lon="12.8598741"><ele>951.0</ele><time>2026-03-28T14:45:40.534Z</time></trkpt><trkpt lat="42.1232916" lon="12.859788"><ele>951.0</ele><time>2026-03-28T14:45:42.519Z</time></trkpt><trkpt lat="42.1232647" lon="12.8597096"><ele>950.0</ele><time>2026-03-28T14:45:44.55Z</time></trkpt><trkpt lat="42.1232622" lon="12.8596183"><ele>949.0</ele><time>2026-03-28T14:45:46.562Z</time></trkpt><trkpt lat="42.1232749" lon="12.8595256"><ele>948.0</ele><time>2026-03-28T14:45:48.524Z</time></trkpt><trkpt lat="42.123312" lon="12.8594177"><ele>947.0</ele><time>2026-03-28T14:45:50.507Z</time></trkpt><trkpt lat="42.1233865" lon="12.8592923"><ele>946.0</ele><time>2026-03-28T14:45:52.516Z</time></trkpt><trkpt lat="42.1234511" lon="12.8592046"><ele>945.0</ele><time>2026-03-28T14:45:54.518Z</time></trkpt><trkpt lat="42.1235099" lon="12.859121"><ele>945.0</ele><time>2026-03-28T14:45:56.521Z</time></trkpt><trkpt lat="42.1235679" lon="12.8590352"><ele>945.0</ele><time>2026-03-28T14:45:58.525Z</time></trkpt><trkpt lat="42.1236242" lon="12.8589532"><ele>945.0</ele><time>2026-03-28T14:46:00.53Z</time></trkpt><trkpt lat="42.1237028" lon="12.8588333"><ele>945.0</ele><time>2026-03-28T14:46:02.528Z</time></trkpt><trkpt lat="42.1237539" lon="12.8587151"><ele>945.0</ele><time>2026-03-28T14:46:04.543Z</time></trkpt><trkpt lat="42.12378" lon="12.8585972"><ele>945.0</ele><time>2026-03-28T14:46:06.541Z</time></trkpt><trkpt lat="42.1237879" lon="12.8584943"><ele>945.0</ele><time>2026-03-28T14:46:08.547Z</time></trkpt><trkpt lat="42.1237794" lon="12.8583609"><ele>945.0</ele><time>2026-03-28T14:46:10.537Z</time></trkpt><trkpt lat="42.1237765" lon="12.8582571"><ele>945.0</ele><time>2026-03-28T14:46:12.521Z</time></trkpt><trkpt lat="42.123788" lon="12.8581729"><ele>945.0</ele><time>2026-03-28T14:46:14.506Z</time></trkpt><trkpt lat="42.1238337" lon="12.8580573"><ele>945.0</ele><time>2026-03-28T14:46:16.513Z</time></trkpt><trkpt lat="42.1238706" lon="12.8579866"><ele>947.1666666666666</ele><time>2026-03-28T14:46:18.527Z</time></trkpt><trkpt lat="42.1239199" lon="12.8578697"><ele>949.3333333333333</ele><time>2026-03-28T14:46:21.538Z</time></trkpt><trkpt lat="42.123979" lon="12.857779"><ele>951.5</ele><time>2026-03-28T14:46:23.532Z</time></trkpt><trkpt lat="42.124024" lon="12.8576837"><ele>953.6666666666666</ele><time>2026-03-28T14:46:25.542Z</time></trkpt><trkpt lat="42.1240639" lon="12.8575988"><ele>955.8333333333333</ele><time>2026-03-28T14:46:27.528Z</time></trkpt><trkpt lat="42.1241194" lon="12.8574969"><ele>958.0</ele><time>2026-03-28T14:46:29.533Z</time></trkpt><trkpt lat="42.1241803" lon="12.8574043"><ele>951.8</ele><time>2026-03-28T14:46:31.532Z</time></trkpt><trkpt lat="42.1242612" lon="12.8572907"><ele>945.5999999999999</ele><time>2026-03-28T14:46:33.529Z</time></trkpt><trkpt lat="42.1243175" lon="12.8571771"><ele>939.4000000000001</ele><time>2026-03-28T14:46:35.527Z</time></trkpt><trkpt lat="42.1243781" lon="12.8570937"><ele>933.2</ele><time>2026-03-28T14:46:37.539Z</time></trkpt><trkpt lat="42.1244235" lon="12.8570122"><ele>927.0</ele><time>2026-03-28T14:46:39.522Z</time></trkpt><trkpt lat="42.1244729" lon="12.8569301"><ele>926.9999999999999</ele><time>2026-03-28T14:46:41.522Z</time></trkpt><trkpt lat="42.1245079" lon="12.8568499"><ele>927.0</ele><time>2026-03-28T14:46:43.539Z</time></trkpt><trkpt lat="42.1245351" lon="12.8567623"><ele>926.9999999999999</ele><time>2026-03-28T14:46:45.527Z</time></trkpt><trkpt lat="42.1245637" lon="12.856683"><ele>926.9999999999999</ele><time>2026-03-28T14:46:47.553Z</time></trkpt><trkpt lat="42.124632" lon="12.8565984"><ele>927.0</ele><time>2026-03-28T14:46:50.507Z</time></trkpt><trkpt lat="42.1246858" lon="12.8565502"><ele>926.9999999999999</ele><time>2026-03-28T14:46:52.525Z</time></trkpt><trkpt lat="42.1247525" lon="12.8565274"><ele>926.9999999999999</ele><time>2026-03-28T14:46:54.538Z</time></trkpt><trkpt lat="42.1248419" lon="12.8565028"><ele>922.0</ele><time>2026-03-28T14:46:56.532Z</time></trkpt><trkpt lat="42.1249388" lon="12.8564377"><ele>917.0</ele><time>2026-03-28T14:46:58.526Z</time></trkpt><trkpt lat="42.1250253" lon="12.8563363"><ele>912.0</ele><time>2026-03-28T14:47:00.533Z</time></trkpt><trkpt lat="42.1251116" lon="12.8562353"><ele>907.0</ele><time>2026-03-28T14:47:02.53Z</time></trkpt><trkpt lat="42.1251952" lon="12.8561443"><ele>902.0</ele><time>2026-03-28T14:47:04.523Z</time></trkpt><trkpt lat="42.1252789" lon="12.8560497"><ele>907.5000000000001</ele><time>2026-03-28T14:47:06.529Z</time></trkpt><trkpt lat="42.1253497" lon="12.8559408"><ele>913.0</ele><time>2026-03-28T14:47:08.517Z</time></trkpt><trkpt lat="42.1254166" lon="12.855843"><ele>918.5</ele><time>2026-03-28T14:47:10.53Z</time></trkpt><trkpt lat="42.125474" lon="12.8557616"><ele>924.0</ele><time>2026-03-28T14:47:12.545Z</time></trkpt><trkpt lat="42.1255262" lon="12.8556847"><ele>929.5000000000001</ele><time>2026-03-28T14:47:14.53Z</time></trkpt><trkpt lat="42.1255723" lon="12.8556134"><ele>935.0</ele><time>2026-03-28T14:47:16.528Z</time></trkpt><trkpt lat="42.1256224" lon="12.8555384"><ele>935.0000000000001</ele><time>2026-03-28T14:47:18.526Z</time></trkpt><trkpt lat="42.1256812" lon="12.8554597"><ele>935.0</ele><time>2026-03-28T14:47:20.528Z</time></trkpt><trkpt lat="42.1257501" lon="12.8553919"><ele>935.0</ele><time>2026-03-28T14:47:22.521Z</time></trkpt><trkpt lat="42.1258098" lon="12.8553268"><ele>935.0</ele><time>2026-03-28T14:47:24.56Z</time></trkpt><trkpt lat="42.1258666" lon="12.8552584"><ele>935.0000000000001</ele><time>2026-03-28T14:47:26.524Z</time></trkpt><trkpt lat="42.1259387" lon="12.8552034"><ele>935.0</ele><time>2026-03-28T14:47:28.521Z</time></trkpt><trkpt lat="42.126034" lon="12.8551426"><ele>931.2</ele><time>2026-03-28T14:47:30.543Z</time></trkpt><trkpt lat="42.1261044" lon="12.8550541"><ele>927.4</ele><time>2026-03-28T14:47:32.535Z</time></trkpt><trkpt lat="42.1261458" lon="12.8549515"><ele>923.5999999999999</ele><time>2026-03-28T14:47:34.533Z</time></trkpt><trkpt lat="42.1261429" lon="12.8548515"><ele>919.8</ele><time>2026-03-28T14:47:36.53Z</time></trkpt><trkpt lat="42.1261228" lon="12.8547363"><ele>916.0</ele><time>2026-03-28T14:47:38.53Z</time></trkpt><trkpt lat="42.1261148" lon="12.8545938"><ele>916.0</ele><time>2026-03-28T14:47:40.534Z</time></trkpt><trkpt lat="42.126102" lon="12.8544567"><ele>915.9999999999999</ele><time>2026-03-28T14:47:42.553Z</time></trkpt><trkpt lat="42.1260985" lon="12.8543153"><ele>915.9999999999999</ele><time>2026-03-28T14:47:44.522Z</time></trkpt><trkpt lat="42.1261057" lon="12.854173"><ele>916.0</ele><time>2026-03-28T14:47:46.518Z</time></trkpt><trkpt lat="42.1261008" lon="12.8540448"><ele>916.0</ele><time>2026-03-28T14:47:48.538Z</time></trkpt><trkpt lat="42.1260963" lon="12.8539141"><ele>917.4</ele><time>2026-03-28T14:47:50.524Z</time></trkpt><trkpt lat="42.1260891" lon="12.8537944"><ele>918.8</ele><time>2026-03-28T14:47:52.52Z</time></trkpt><trkpt lat="42.1260853" lon="12.8536602"><ele>920.1999999999999</ele><time>2026-03-28T14:47:54.53Z</time></trkpt><trkpt lat="42.1261099" lon="12.8535287"><ele>921.5999999999999</ele><time>2026-03-28T14:47:56.528Z</time></trkpt><trkpt lat="42.1261346" lon="12.8533911"><ele>923.0</ele><time>2026-03-28T14:47:58.545Z</time></trkpt><trkpt lat="42.126145" lon="12.853265"><ele>919.4</ele><time>2026-03-28T14:48:00.532Z</time></trkpt><trkpt lat="42.1260944" lon="12.8531636"><ele>915.8</ele><time>2026-03-28T14:48:02.52Z</time></trkpt><trkpt lat="42.1260046" lon="12.8530932"><ele>912.2</ele><time>2026-03-28T14:48:04.514Z</time></trkpt><trkpt lat="42.1259056" lon="12.8530489"><ele>908.6</ele><time>2026-03-28T14:48:06.53Z</time></trkpt><trkpt lat="42.1258011" lon="12.8530277"><ele>905.0</ele><time>2026-03-28T14:48:08.544Z</time></trkpt><trkpt lat="42.1256855" lon="12.8530247"><ele>905.0</ele><time>2026-03-28T14:48:10.526Z</time></trkpt><trkpt lat="42.1255667" lon="12.8530315"><ele>905.0</ele><time>2026-03-28T14:48:12.516Z</time></trkpt><trkpt lat="42.1254548" lon="12.8530258"><ele>905.0</ele><time>2026-03-28T14:48:14.522Z</time></trkpt><trkpt lat="42.1253663" lon="12.8529986"><ele>905.0</ele><time>2026-03-28T14:48:16.543Z</time></trkpt><trkpt lat="42.1252744" lon="12.8529636"><ele>905.0</ele><time>2026-03-28T14:48:18.573Z</time></trkpt><trkpt lat="42.125177" lon="12.8529242"><ele>905.0</ele><time>2026-03-28T14:48:20.549Z</time></trkpt><trkpt lat="42.1250668" lon="12.852912"><ele>905.0</ele><time>2026-03-28T14:48:22.526Z</time></trkpt><trkpt lat="42.1249509" lon="12.8529214"><ele>905.0</ele><time>2026-03-28T14:48:24.558Z</time></trkpt><trkpt lat="42.1248188" lon="12.8529397"><ele>905.0</ele><time>2026-03-28T14:48:26.554Z</time></trkpt><trkpt lat="42.1247509" lon="12.8529478"><ele>905.0</ele><time>2026-03-28T14:48:27.533Z</time></trkpt><trkpt lat="42.1246856" lon="12.8529575"><ele>902.6</ele><time>2026-03-28T14:48:28.543Z</time></trkpt><trkpt lat="42.1246175" lon="12.8529734"><ele>900.2</ele><time>2026-03-28T14:48:29.535Z</time></trkpt><trkpt lat="42.1244955" lon="12.8530169"><ele>897.8</ele><time>2026-03-28T14:48:31.524Z</time></trkpt><trkpt lat="42.1243732" lon="12.853066"><ele>895.4</ele><time>2026-03-28T14:48:33.545Z</time></trkpt><trkpt lat="42.1243127" lon="12.8530911"><ele>893.0</ele><time>2026-03-28T14:48:34.537Z</time></trkpt><trkpt lat="42.1241872" lon="12.8531336"><ele>893.0</ele><time>2026-03-28T14:48:36.537Z</time></trkpt><trkpt lat="42.1241231" lon="12.8531564"><ele>893.0</ele><time>2026-03-28T14:48:37.533Z</time></trkpt><trkpt lat="42.1240591" lon="12.8531806"><ele>893.0</ele><time>2026-03-28T14:48:38.528Z</time></trkpt><trkpt lat="42.1239954" lon="12.8532131"><ele>893.0</ele><time>2026-03-28T14:48:39.543Z</time></trkpt><trkpt lat="42.1239327" lon="12.8532457"><ele>893.0</ele><time>2026-03-28T14:48:40.525Z</time></trkpt><trkpt lat="42.1238731" lon="12.8532797"><ele>893.0</ele><time>2026-03-28T14:48:41.541Z</time></trkpt><trkpt lat="42.1238131" lon="12.8533106"><ele>893.0</ele><time>2026-03-28T14:48:42.526Z</time></trkpt><trkpt lat="42.1237558" lon="12.8533463"><ele>889.6666666666667</ele><time>2026-03-28T14:48:43.524Z</time></trkpt><trkpt lat="42.1236384" lon="12.8533932"><ele>886.3333333333334</ele><time>2026-03-28T14:48:45.532Z</time></trkpt><trkpt lat="42.1235745" lon="12.8534066"><ele>883.0</ele><time>2026-03-28T14:48:46.525Z</time></trkpt><trkpt lat="42.1235021" lon="12.8534206"><ele>879.6666666666667</ele><time>2026-03-28T14:48:47.529Z</time></trkpt><trkpt lat="42.1234271" lon="12.8534363"><ele>876.3333333333334</ele><time>2026-03-28T14:48:48.52Z</time></trkpt><trkpt lat="42.1233583" lon="12.8534507"><ele>873.0</ele><time>2026-03-28T14:48:49.53Z</time></trkpt><trkpt lat="42.123291" lon="12.8534631"><ele>872.1666666666666</ele><time>2026-03-28T14:48:50.541Z</time></trkpt><trkpt lat="42.1232279" lon="12.8534725"><ele>871.3333333333333</ele><time>2026-03-28T14:48:51.524Z</time></trkpt><trkpt lat="42.1230997" lon="12.8534687"><ele>870.5</ele><time>2026-03-28T14:48:53.521Z</time></trkpt><trkpt lat="42.1230318" lon="12.8534578"><ele>869.6666666666666</ele><time>2026-03-28T14:48:54.538Z</time></trkpt><trkpt lat="42.1229648" lon="12.8534413"><ele>868.8333333333333</ele><time>2026-03-28T14:48:55.516Z</time></trkpt><trkpt lat="42.1228974" lon="12.8534225"><ele>868.0</ele><time>2026-03-28T14:48:56.527Z</time></trkpt><trkpt lat="42.1228291" lon="12.8534002"><ele>867.9999999999999</ele><time>2026-03-28T14:48:57.524Z</time></trkpt><trkpt lat="42.1227623" lon="12.8533772"><ele>868.0</ele><time>2026-03-28T14:48:58.556Z</time></trkpt><trkpt lat="42.1226975" lon="12.853355"><ele>868.0</ele><time>2026-03-28T14:48:59.523Z</time></trkpt><trkpt lat="42.1226294" lon="12.8533344"><ele>868.0</ele><time>2026-03-28T14:49:00.525Z</time></trkpt><trkpt lat="42.1225641" lon="12.8533093"><ele>867.9999999999999</ele><time>2026-03-28T14:49:01.545Z</time></trkpt><trkpt lat="42.1225007" lon="12.8532915"><ele>868.0</ele><time>2026-03-28T14:49:02.527Z</time></trkpt><trkpt lat="42.1223828" lon="12.8532629"><ele>866.1666666666666</ele><time>2026-03-28T14:49:04.525Z</time></trkpt><trkpt lat="42.1222659" lon="12.8532083"><ele>864.3333333333333</ele><time>2026-03-28T14:49:06.524Z</time></trkpt><trkpt lat="42.1221453" lon="12.8531637"><ele>862.5</ele><time>2026-03-28T14:49:08.519Z</time></trkpt><trkpt lat="42.1220795" lon="12.8531596"><ele>860.6666666666667</ele><time>2026-03-28T14:49:09.517Z</time></trkpt><trkpt lat="42.1220134" lon="12.8531676"><ele>858.8333333333334</ele><time>2026-03-28T14:49:10.524Z</time></trkpt><trkpt lat="42.1219487" lon="12.8531926"><ele>857.0</ele><time>2026-03-28T14:49:11.53Z</time></trkpt><trkpt lat="42.1218867" lon="12.8532247"><ele>857.0000000000001</ele><time>2026-03-28T14:49:12.532Z</time></trkpt><trkpt lat="42.1218264" lon="12.8532559"><ele>857.0</ele><time>2026-03-28T14:49:13.525Z</time></trkpt><trkpt lat="42.1217076" lon="12.8533131"><ele>857.0</ele><time>2026-03-28T14:49:15.53Z</time></trkpt><trkpt lat="42.1216491" lon="12.8533484"><ele>857.0</ele><time>2026-03-28T14:49:16.511Z</time></trkpt><trkpt lat="42.1215872" lon="12.8533828"><ele>857.0000000000001</ele><time>2026-03-28T14:49:17.536Z</time></trkpt><trkpt lat="42.1215279" lon="12.8534177"><ele>857.0</ele><time>2026-03-28T14:49:18.534Z</time></trkpt><trkpt lat="42.1214677" lon="12.8534572"><ele>858.6</ele><time>2026-03-28T14:49:19.526Z</time></trkpt><trkpt lat="42.1214123" lon="12.8534988"><ele>860.2</ele><time>2026-03-28T14:49:20.526Z</time></trkpt><trkpt lat="42.1213064" lon="12.8535847"><ele>861.8</ele><time>2026-03-28T14:49:22.517Z</time></trkpt><trkpt lat="42.1212178" lon="12.8536933"><ele>863.4</ele><time>2026-03-28T14:49:24.519Z</time></trkpt><trkpt lat="42.1211333" lon="12.8537872"><ele>865.0</ele><time>2026-03-28T14:49:26.509Z</time></trkpt><trkpt lat="42.1210435" lon="12.8538859"><ele>865.0</ele><time>2026-03-28T14:49:28.513Z</time></trkpt><trkpt lat="42.1209443" lon="12.8539818"><ele>865.0</ele><time>2026-03-28T14:49:30.543Z</time></trkpt><trkpt lat="42.1208883" lon="12.8540254"><ele>865.0</ele><time>2026-03-28T14:49:31.54Z</time></trkpt><trkpt lat="42.1207749" lon="12.8540892"><ele>865.0</ele><time>2026-03-28T14:49:33.516Z</time></trkpt><trkpt lat="42.1206561" lon="12.8541311"><ele>865.0</ele><time>2026-03-28T14:49:35.533Z</time></trkpt><trkpt lat="42.1205919" lon="12.8541341"><ele>865.1666666666666</ele><time>2026-03-28T14:49:36.524Z</time></trkpt><trkpt lat="42.1205195" lon="12.8541287"><ele>865.3333333333333</ele><time>2026-03-28T14:49:37.531Z</time></trkpt><trkpt lat="42.1204532" lon="12.8541185"><ele>865.5</ele><time>2026-03-28T14:49:38.533Z</time></trkpt><trkpt lat="42.1203389" lon="12.8540526"><ele>865.6666666666667</ele><time>2026-03-28T14:49:40.527Z</time></trkpt><trkpt lat="42.1202817" lon="12.854015"><ele>865.8333333333334</ele><time>2026-03-28T14:49:41.54Z</time></trkpt><trkpt lat="42.1202138" lon="12.853975"><ele>866.0</ele><time>2026-03-28T14:49:42.528Z</time></trkpt><trkpt lat="42.1201554" lon="12.8539433"><ele>866.0000000000001</ele><time>2026-03-28T14:49:43.531Z</time></trkpt><trkpt lat="42.1200921" lon="12.8539147"><ele>866.0</ele><time>2026-03-28T14:49:44.538Z</time></trkpt><trkpt lat="42.1200257" lon="12.8538876"><ele>866.0</ele><time>2026-03-28T14:49:45.53Z</time></trkpt><trkpt lat="42.1199593" lon="12.8538744"><ele>866.0</ele><time>2026-03-28T14:49:46.524Z</time></trkpt><trkpt lat="42.1198962" lon="12.853865"><ele>866.0000000000001</ele><time>2026-03-28T14:49:47.529Z</time></trkpt><trkpt lat="42.1197777" lon="12.8538755"><ele>866.0</ele><time>2026-03-28T14:49:49.515Z</time></trkpt><trkpt lat="42.119679" lon="12.8539101"><ele>867.8</ele><time>2026-03-28T14:49:51.523Z</time></trkpt><trkpt lat="42.1195702" lon="12.8539575"><ele>869.5999999999999</ele><time>2026-03-28T14:49:53.51Z</time></trkpt><trkpt lat="42.1194681" lon="12.8539419"><ele>871.4</ele><time>2026-03-28T14:49:55.536Z</time></trkpt><trkpt lat="42.1193671" lon="12.8538643"><ele>873.2</ele><time>2026-03-28T14:49:57.522Z</time></trkpt><trkpt lat="42.1192974" lon="12.8538121"><ele>875.0</ele><time>2026-03-28T14:49:58.539Z</time></trkpt><trkpt lat="42.119237" lon="12.8537668"><ele>875.0000000000001</ele><time>2026-03-28T14:49:59.529Z</time></trkpt><trkpt lat="42.1191731" lon="12.8537139"><ele>875.0</ele><time>2026-03-28T14:50:00.522Z</time></trkpt><trkpt lat="42.1191017" lon="12.8536614"><ele>875.0</ele><time>2026-03-28T14:50:01.526Z</time></trkpt><trkpt lat="42.119035" lon="12.8536224"><ele>875.0</ele><time>2026-03-28T14:50:02.526Z</time></trkpt><trkpt lat="42.118972" lon="12.8535749"><ele>875.0000000000001</ele><time>2026-03-28T14:50:03.553Z</time></trkpt><trkpt lat="42.1188708" lon="12.8534669"><ele>875.0</ele><time>2026-03-28T14:50:05.541Z</time></trkpt><trkpt lat="42.118818" lon="12.853399"><ele>872.0</ele><time>2026-03-28T14:50:06.54Z</time></trkpt><trkpt lat="42.1187768" lon="12.8533295"><ele>869.0</ele><time>2026-03-28T14:50:07.528Z</time></trkpt><trkpt lat="42.1187316" lon="12.8532657"><ele>866.0</ele><time>2026-03-28T14:50:08.528Z</time></trkpt><trkpt lat="42.1186861" lon="12.8531999"><ele>863.0</ele><time>2026-03-28T14:50:09.527Z</time></trkpt><trkpt lat="42.118634" lon="12.853149"><ele>860.0</ele><time>2026-03-28T14:50:10.517Z</time></trkpt><trkpt lat="42.1185763" lon="12.8531071"><ele>857.0</ele><time>2026-03-28T14:50:11.526Z</time></trkpt><trkpt lat="42.1185082" lon="12.8530822"><ele>854.0</ele><time>2026-03-28T14:50:12.528Z</time></trkpt><trkpt lat="42.1184342" lon="12.8530664"><ele>854.0000000000001</ele><time>2026-03-28T14:50:13.538Z</time></trkpt><trkpt lat="42.1183616" lon="12.8530614"><ele>854.0</ele><time>2026-03-28T14:50:14.529Z</time></trkpt><trkpt lat="42.1182925" lon="12.8530592"><ele>854.0</ele><time>2026-03-28T14:50:15.527Z</time></trkpt><trkpt lat="42.1182246" lon="12.8530679"><ele>854.0</ele><time>2026-03-28T14:50:16.548Z</time></trkpt><trkpt lat="42.1181587" lon="12.8530681"><ele>854.0000000000001</ele><time>2026-03-28T14:50:17.525Z</time></trkpt><trkpt lat="42.1180382" lon="12.853092"><ele>854.0</ele><time>2026-03-28T14:50:19.521Z</time></trkpt><trkpt lat="42.117921" lon="12.8531303"><ele>852.2</ele><time>2026-03-28T14:50:21.52Z</time></trkpt><trkpt lat="42.1178018" lon="12.8531715"><ele>850.4000000000001</ele><time>2026-03-28T14:50:23.505Z</time></trkpt><trkpt lat="42.1176759" lon="12.8532074"><ele>848.6</ele><time>2026-03-28T14:50:25.509Z</time></trkpt><trkpt lat="42.1176062" lon="12.8532274"><ele>846.8</ele><time>2026-03-28T14:50:26.535Z</time></trkpt><trkpt lat="42.117537" lon="12.8532446"><ele>845.0</ele><time>2026-03-28T14:50:27.529Z</time></trkpt><trkpt lat="42.1174643" lon="12.8532641"><ele>844.9999999999999</ele><time>2026-03-28T14:50:28.536Z</time></trkpt><trkpt lat="42.1173927" lon="12.8532898"><ele>845.0</ele><time>2026-03-28T14:50:29.52Z</time></trkpt><trkpt lat="42.117326" lon="12.8533135"><ele>845.0</ele><time>2026-03-28T14:50:30.544Z</time></trkpt><trkpt lat="42.1172578" lon="12.8533313"><ele>845.0</ele><time>2026-03-28T14:50:31.539Z</time></trkpt><trkpt lat="42.117193" lon="12.8533477"><ele>845.0</ele><time>2026-03-28T14:50:32.528Z</time></trkpt><trkpt lat="42.1171262" lon="12.8533545"><ele>844.9999999999999</ele><time>2026-03-28T14:50:33.543Z</time></trkpt><trkpt lat="42.1170636" lon="12.8533649"><ele>845.0</ele><time>2026-03-28T14:50:34.535Z</time></trkpt><trkpt lat="42.1169454" lon="12.8533665"><ele>845.0</ele><time>2026-03-28T14:50:36.513Z</time></trkpt><trkpt lat="42.1168396" lon="12.853358"><ele>845.0</ele><time>2026-03-28T14:50:38.529Z</time></trkpt><trkpt lat="42.1167389" lon="12.8533386"><ele>845.0</ele><time>2026-03-28T14:50:40.531Z</time></trkpt><trkpt lat="42.115543" lon="12.8515285"><ele>841.8333333333334</ele><time>2026-03-28T14:51:18.541Z</time></trkpt><trkpt lat="42.115465" lon="12.851554"><ele>838.6666666666667</ele><time>2026-03-28T14:51:19.511Z</time></trkpt><trkpt lat="42.1153995" lon="12.8515862"><ele>835.5</ele><time>2026-03-28T14:51:20.524Z</time></trkpt><trkpt lat="42.1153347" lon="12.8516101"><ele>832.3333333333333</ele><time>2026-03-28T14:51:21.533Z</time></trkpt><trkpt lat="42.1152704" lon="12.8516379"><ele>829.1666666666666</ele><time>2026-03-28T14:51:22.541Z</time></trkpt><trkpt lat="42.1151416" lon="12.8516941"><ele>826.0</ele><time>2026-03-28T14:51:24.524Z</time></trkpt><trkpt lat="42.1150804" lon="12.8517301"><ele>826.0</ele><time>2026-03-28T14:51:25.525Z</time></trkpt><trkpt lat="42.1150207" lon="12.8517706"><ele>826.0</ele><time>2026-03-28T14:51:26.51Z</time></trkpt><trkpt lat="42.1149617" lon="12.851809"><ele>826.0</ele><time>2026-03-28T14:51:27.526Z</time></trkpt><trkpt lat="42.1148439" lon="12.8518526"><ele>826.0</ele><time>2026-03-28T14:51:29.515Z</time></trkpt><trkpt lat="42.1147278" lon="12.8518792"><ele>826.0</ele><time>2026-03-28T14:51:31.53Z</time></trkpt><trkpt lat="42.1146221" lon="12.8518781"><ele>829.8</ele><time>2026-03-28T14:51:33.519Z</time></trkpt><trkpt lat="42.1145323" lon="12.8518511"><ele>833.5999999999999</ele><time>2026-03-28T14:51:35.523Z</time></trkpt><trkpt lat="42.1144781" lon="12.8517512"><ele>837.4</ele><time>2026-03-28T14:51:37.526Z</time></trkpt><trkpt lat="42.1144365" lon="12.8516158"><ele>841.2</ele><time>2026-03-28T14:51:39.512Z</time></trkpt><trkpt lat="42.1144112" lon="12.8514735"><ele>845.0</ele><time>2026-03-28T14:51:41.517Z</time></trkpt><trkpt lat="42.1143835" lon="12.8513295"><ele>845.0</ele><time>2026-03-28T14:51:43.519Z</time></trkpt><trkpt lat="42.1142929" lon="12.8510371"><ele>845.0</ele><time>2026-03-28T14:51:47.526Z</time></trkpt><trkpt lat="42.1142472" lon="12.8509121"><ele>845.0</ele><time>2026-03-28T14:51:49.52Z</time></trkpt><trkpt lat="42.1141682" lon="12.8507936"><ele>843.0</ele><time>2026-03-28T14:51:51.538Z</time></trkpt><trkpt lat="42.1140715" lon="12.8507311"><ele>841.0</ele><time>2026-03-28T14:51:53.521Z</time></trkpt><trkpt lat="42.1139647" lon="12.8506846"><ele>839.0</ele><time>2026-03-28T14:51:55.542Z</time></trkpt><trkpt lat="42.1138618" lon="12.8506254"><ele>837.0</ele><time>2026-03-28T14:51:57.527Z</time></trkpt><trkpt lat="42.1137492" lon="12.8505452"><ele>837.0</ele><time>2026-03-28T14:51:59.53Z</time></trkpt><trkpt lat="42.1136884" lon="12.850509"><ele>837.0</ele><time>2026-03-28T14:52:00.518Z</time></trkpt><trkpt lat="42.1136278" lon="12.8504837"><ele>837.0</ele><time>2026-03-28T14:52:01.527Z</time></trkpt><trkpt lat="42.1135031" lon="12.8504409"><ele>837.0</ele><time>2026-03-28T14:52:03.537Z</time></trkpt><trkpt lat="42.1134326" lon="12.8504247"><ele>837.0</ele><time>2026-03-28T14:52:04.538Z</time></trkpt><trkpt lat="42.1132964" lon="12.850404"><ele>837.6666666666666</ele><time>2026-03-28T14:52:06.547Z</time></trkpt><trkpt lat="42.1132296" lon="12.850397"><ele>838.3333333333333</ele><time>2026-03-28T14:52:07.537Z</time></trkpt><trkpt lat="42.1131619" lon="12.8503776"><ele>839.0</ele><time>2026-03-28T14:52:08.511Z</time></trkpt><trkpt lat="42.1130964" lon="12.8503609"><ele>839.6666666666666</ele><time>2026-03-28T14:52:09.539Z</time></trkpt><trkpt lat="42.1129809" lon="12.8503179"><ele>840.3333333333333</ele><time>2026-03-28T14:52:11.529Z</time></trkpt><trkpt lat="42.1128588" lon="12.8502873"><ele>841.0</ele><time>2026-03-28T14:52:13.53Z</time></trkpt><trkpt lat="42.1127416" lon="12.8503092"><ele>841.0</ele><time>2026-03-28T14:52:15.535Z</time></trkpt><trkpt lat="42.112681" lon="12.8503352"><ele>841.0</ele><time>2026-03-28T14:52:16.546Z</time></trkpt><trkpt lat="42.1126152" lon="12.8503693"><ele>841.0</ele><time>2026-03-28T14:52:17.532Z</time></trkpt><trkpt lat="42.1125489" lon="12.8504074"><ele>841.0</ele><time>2026-03-28T14:52:18.54Z</time></trkpt><trkpt lat="42.1124883" lon="12.8504512"><ele>841.0</ele><time>2026-03-28T14:52:19.542Z</time></trkpt><trkpt lat="42.1124316" lon="12.8505014"><ele>841.0</ele><time>2026-03-28T14:52:20.528Z</time></trkpt><trkpt lat="42.112375" lon="12.8505426"><ele>841.0</ele><time>2026-03-28T14:52:21.519Z</time></trkpt><trkpt lat="42.1123182" lon="12.8505822"><ele>842.5</ele><time>2026-03-28T14:52:22.537Z</time></trkpt><trkpt lat="42.1122574" lon="12.8506203"><ele>844.0</ele><time>2026-03-28T14:52:23.519Z</time></trkpt><trkpt lat="42.1121979" lon="12.8506527"><ele>845.5</ele><time>2026-03-28T14:52:24.545Z</time></trkpt><trkpt lat="42.1120947" lon="12.8507083"><ele>847.0</ele><time>2026-03-28T14:52:26.523Z</time></trkpt><trkpt lat="42.1118455" lon="12.8507789"><ele>847.0</ele><time>2026-03-28T14:52:30.547Z</time></trkpt><trkpt lat="42.1117776" lon="12.8507905"><ele>847.0</ele><time>2026-03-28T14:52:31.536Z</time></trkpt><trkpt lat="42.1117108" lon="12.8508024"><ele>847.0</ele><time>2026-03-28T14:52:32.553Z</time></trkpt><trkpt lat="42.1116469" lon="12.8508218"><ele>847.0</ele><time>2026-03-28T14:52:33.541Z</time></trkpt><trkpt lat="42.1115754" lon="12.8508459"><ele>847.0</ele><time>2026-03-28T14:52:34.54Z</time></trkpt><trkpt lat="42.1115035" lon="12.8508686"><ele>847.0</ele><time>2026-03-28T14:52:35.528Z</time></trkpt><trkpt lat="42.1114355" lon="12.8508923"><ele>847.0</ele><time>2026-03-28T14:52:36.543Z</time></trkpt><trkpt lat="42.1113636" lon="12.8509139"><ele>847.5714285714286</ele><time>2026-03-28T14:52:37.534Z</time></trkpt><trkpt lat="42.1112943" lon="12.8509417"><ele>848.1428571428571</ele><time>2026-03-28T14:52:38.517Z</time></trkpt><trkpt lat="42.1112319" lon="12.8509645"><ele>848.7142857142858</ele><time>2026-03-28T14:52:39.534Z</time></trkpt><trkpt lat="42.1111699" lon="12.8509885"><ele>849.2857142857142</ele><time>2026-03-28T14:52:40.545Z</time></trkpt><trkpt lat="42.1111048" lon="12.8510108"><ele>849.8571428571429</ele><time>2026-03-28T14:52:41.522Z</time></trkpt><trkpt lat="42.1110391" lon="12.8510305"><ele>850.4285714285714</ele><time>2026-03-28T14:52:42.53Z</time></trkpt><trkpt lat="42.1109715" lon="12.851042"><ele>851.0</ele><time>2026-03-28T14:52:43.535Z</time></trkpt><trkpt lat="42.1109024" lon="12.8510604"><ele>855.0</ele><time>2026-03-28T14:52:44.543Z</time></trkpt><trkpt lat="42.1108366" lon="12.8510803"><ele>859.0</ele><time>2026-03-28T14:52:45.524Z</time></trkpt><trkpt lat="42.1107199" lon="12.8511173"><ele>863.0</ele><time>2026-03-28T14:52:47.536Z</time></trkpt><trkpt lat="42.110536" lon="12.8511898"><ele>867.0</ele><time>2026-03-28T14:52:50.522Z</time></trkpt><trkpt lat="42.1104643" lon="12.8512166"><ele>867.0</ele><time>2026-03-28T14:52:51.516Z</time></trkpt><trkpt lat="42.110395" lon="12.8512441"><ele>867.0</ele><time>2026-03-28T14:52:52.519Z</time></trkpt><trkpt lat="42.1103292" lon="12.8512737"><ele>867.0</ele><time>2026-03-28T14:52:53.524Z</time></trkpt><trkpt lat="42.1102598" lon="12.8512995"><ele>867.0</ele><time>2026-03-28T14:52:54.509Z</time></trkpt><trkpt lat="42.1101831" lon="12.8513198"><ele>867.0</ele><time>2026-03-28T14:52:55.526Z</time></trkpt><trkpt lat="42.1101221" lon="12.8513464"><ele>867.0</ele><time>2026-03-28T14:52:56.516Z</time></trkpt><trkpt lat="42.1100638" lon="12.851382"><ele>867.0</ele><time>2026-03-28T14:52:57.526Z</time></trkpt><trkpt lat="42.1100026" lon="12.8514122"><ele>867.1666666666666</ele><time>2026-03-28T14:52:58.517Z</time></trkpt><trkpt lat="42.1098923" lon="12.8514666"><ele>867.3333333333333</ele><time>2026-03-28T14:53:00.524Z</time></trkpt><trkpt lat="42.1097797" lon="12.8514846"><ele>867.5</ele><time>2026-03-28T14:53:02.508Z</time></trkpt><trkpt lat="42.1097163" lon="12.8514604"><ele>867.6666666666666</ele><time>2026-03-28T14:53:03.509Z</time></trkpt><trkpt lat="42.1096479" lon="12.8514336"><ele>867.8333333333333</ele><time>2026-03-28T14:53:04.53Z</time></trkpt><trkpt lat="42.109583" lon="12.8514177"><ele>868.0</ele><time>2026-03-28T14:53:05.525Z</time></trkpt><trkpt lat="42.1094682" lon="12.8514057"><ele>868.0</ele><time>2026-03-28T14:53:07.515Z</time></trkpt><trkpt lat="42.109404" lon="12.8513852"><ele>868.0</ele><time>2026-03-28T14:53:09.51Z</time></trkpt><trkpt lat="42.1092923" lon="12.8512591"><ele>868.0</ele><time>2026-03-28T14:53:14.513Z</time></trkpt><trkpt lat="42.1093192" lon="12.8511588"><ele>868.0</ele><time>2026-03-28T14:53:16.525Z</time></trkpt><trkpt lat="42.1093899" lon="12.8510731"><ele>868.0</ele><time>2026-03-28T14:53:18.51Z</time></trkpt><trkpt lat="42.1094424" lon="12.851022"><ele>868.3333333333333</ele><time>2026-03-28T14:53:19.526Z</time></trkpt><trkpt lat="42.1095595" lon="12.8509306"><ele>868.6666666666666</ele><time>2026-03-28T14:53:21.525Z</time></trkpt><trkpt lat="42.1096346" lon="12.8508871"><ele>869.0</ele><time>2026-03-28T14:53:22.528Z</time></trkpt><trkpt lat="42.1097022" lon="12.8508465"><ele>869.3333333333333</ele><time>2026-03-28T14:53:23.53Z</time></trkpt><trkpt lat="42.1097763" lon="12.850819"><ele>869.6666666666666</ele><time>2026-03-28T14:53:24.528Z</time></trkpt><trkpt lat="42.1098496" lon="12.8507845"><ele>870.0</ele><time>2026-03-28T14:53:25.548Z</time></trkpt><trkpt lat="42.109924" lon="12.8507482"><ele>867.4</ele><time>2026-03-28T14:53:26.518Z</time></trkpt><trkpt lat="42.1099983" lon="12.8507159"><ele>864.8</ele><time>2026-03-28T14:53:27.523Z</time></trkpt><trkpt lat="42.1100761" lon="12.8506848"><ele>862.2</ele><time>2026-03-28T14:53:28.523Z</time></trkpt><trkpt lat="42.1101557" lon="12.8506503"><ele>859.6</ele><time>2026-03-28T14:53:29.516Z</time></trkpt><trkpt lat="42.1102381" lon="12.8506188"><ele>857.0</ele><time>2026-03-28T14:53:30.516Z</time></trkpt><trkpt lat="42.1103909" lon="12.8505414"><ele>857.0000000000001</ele><time>2026-03-28T14:53:32.515Z</time></trkpt><trkpt lat="42.1104694" lon="12.850502"><ele>857.0</ele><time>2026-03-28T14:53:33.522Z</time></trkpt><trkpt lat="42.1105446" lon="12.8504589"><ele>857.0</ele><time>2026-03-28T14:53:34.514Z</time></trkpt><trkpt lat="42.1106189" lon="12.8504171"><ele>857.0</ele><time>2026-03-28T14:53:35.545Z</time></trkpt><trkpt lat="42.1106962" lon="12.8503781"><ele>857.0000000000001</ele><time>2026-03-28T14:53:36.52Z</time></trkpt><trkpt lat="42.1107788" lon="12.8503504"><ele>857.0</ele><time>2026-03-28T14:53:37.52Z</time></trkpt><trkpt lat="42.1108564" lon="12.850329"><ele>856.1428571428571</ele><time>2026-03-28T14:53:38.534Z</time></trkpt><trkpt lat="42.1109296" lon="12.8503106"><ele>855.2857142857142</ele><time>2026-03-28T14:53:39.532Z</time></trkpt><trkpt lat="42.110998" lon="12.8502979"><ele>854.4285714285714</ele><time>2026-03-28T14:53:40.521Z</time></trkpt><trkpt lat="42.1110617" lon="12.8502772"><ele>853.5714285714286</ele><time>2026-03-28T14:53:41.535Z</time></trkpt><trkpt lat="42.1111218" lon="12.8502478"><ele>852.7142857142858</ele><time>2026-03-28T14:53:42.531Z</time></trkpt><trkpt lat="42.11119" lon="12.850217"><ele>851.8571428571429</ele><time>2026-03-28T14:53:43.532Z</time></trkpt><trkpt lat="42.1112577" lon="12.8501896"><ele>851.0</ele><time>2026-03-28T14:53:44.543Z</time></trkpt><trkpt lat="42.1113285" lon="12.8501632"><ele>851.0000000000001</ele><time>2026-03-28T14:53:45.526Z</time></trkpt><trkpt lat="42.1113989" lon="12.850125"><ele>851.0</ele><time>2026-03-28T14:53:46.538Z</time></trkpt><trkpt lat="42.111462" lon="12.8500703"><ele>851.0</ele><time>2026-03-28T14:53:47.541Z</time></trkpt><trkpt lat="42.1115265" lon="12.8500222"><ele>851.0</ele><time>2026-03-28T14:53:48.536Z</time></trkpt><trkpt lat="42.1115888" lon="12.8499699"><ele>851.0000000000001</ele><time>2026-03-28T14:53:49.54Z</time></trkpt><trkpt lat="42.1116625" lon="12.8499176"><ele>851.0</ele><time>2026-03-28T14:53:50.528Z</time></trkpt><trkpt lat="42.1117297" lon="12.8498679"><ele>849.8333333333334</ele><time>2026-03-28T14:53:51.52Z</time></trkpt><trkpt lat="42.1118509" lon="12.8497501"><ele>848.6666666666667</ele><time>2026-03-28T14:53:53.524Z</time></trkpt><trkpt lat="42.1119071" lon="12.8496941"><ele>847.5</ele><time>2026-03-28T14:53:54.543Z</time></trkpt><trkpt lat="42.1119622" lon="12.8496368"><ele>846.3333333333333</ele><time>2026-03-28T14:53:55.52Z</time></trkpt><trkpt lat="42.1120202" lon="12.8495834"><ele>845.1666666666666</ele><time>2026-03-28T14:53:56.522Z</time></trkpt><trkpt lat="42.1120734" lon="12.8495262"><ele>844.0</ele><time>2026-03-28T14:53:57.546Z</time></trkpt><trkpt lat="42.1121229" lon="12.8494652"><ele>844.0</ele><time>2026-03-28T14:53:58.513Z</time></trkpt><trkpt lat="42.1121657" lon="12.8493955"><ele>844.0</ele><time>2026-03-28T14:53:59.509Z</time></trkpt><trkpt lat="42.1122306" lon="12.8492536"><ele>844.0</ele><time>2026-03-28T14:54:01.525Z</time></trkpt><trkpt lat="42.1122651" lon="12.8491783"><ele>844.0</ele><time>2026-03-28T14:54:02.521Z</time></trkpt><trkpt lat="42.1123006" lon="12.8491026"><ele>844.0</ele><time>2026-03-28T14:54:03.521Z</time></trkpt><trkpt lat="42.1123678" lon="12.8489567"><ele>841.6</ele><time>2026-03-28T14:54:05.544Z</time></trkpt><trkpt lat="42.1124368" lon="12.8488258"><ele>839.2</ele><time>2026-03-28T14:54:07.524Z</time></trkpt><trkpt lat="42.1125242" lon="12.8487104"><ele>836.8000000000001</ele><time>2026-03-28T14:54:09.53Z</time></trkpt><trkpt lat="42.1126242" lon="12.8486214"><ele>834.4000000000001</ele><time>2026-03-28T14:54:11.536Z</time></trkpt><trkpt lat="42.1126887" lon="12.8486017"><ele>832.0</ele><time>2026-03-28T14:54:12.535Z</time></trkpt><trkpt lat="42.1128191" lon="12.8485255"><ele>832.0</ele><time>2026-03-28T14:54:14.531Z</time></trkpt><trkpt lat="42.1128822" lon="12.8484833"><ele>832.0</ele><time>2026-03-28T14:54:15.523Z</time></trkpt><trkpt lat="42.1129456" lon="12.8484345"><ele>832.0</ele><time>2026-03-28T14:54:16.523Z</time></trkpt><trkpt lat="42.113006" lon="12.8483951"><ele>832.0</ele><time>2026-03-28T14:54:17.542Z</time></trkpt><trkpt lat="42.1130681" lon="12.8483579"><ele>832.0</ele><time>2026-03-28T14:54:18.536Z</time></trkpt><trkpt lat="42.1131363" lon="12.8483234"><ele>832.0</ele><time>2026-03-28T14:54:19.52Z</time></trkpt><trkpt lat="42.1132096" lon="12.8483011"><ele>832.0</ele><time>2026-03-28T14:54:20.524Z</time></trkpt><trkpt lat="42.11328" lon="12.8482854"><ele>832.1666666666666</ele><time>2026-03-28T14:54:21.515Z</time></trkpt><trkpt lat="42.1133429" lon="12.8482653"><ele>832.3333333333333</ele><time>2026-03-28T14:54:22.532Z</time></trkpt><trkpt lat="42.1134546" lon="12.8482237"><ele>832.5</ele><time>2026-03-28T14:54:24.524Z</time></trkpt><trkpt lat="42.1135604" lon="12.8481711"><ele>832.6666666666667</ele><time>2026-03-28T14:54:26.522Z</time></trkpt><trkpt lat="42.1136204" lon="12.8481287"><ele>832.8333333333334</ele><time>2026-03-28T14:54:27.527Z</time></trkpt><trkpt lat="42.113686" lon="12.848062"><ele>833.0</ele><time>2026-03-28T14:54:28.512Z</time></trkpt><trkpt lat="42.1137432" lon="12.8480011"><ele>833.0</ele><time>2026-03-28T14:54:29.535Z</time></trkpt><trkpt lat="42.1137949" lon="12.8479425"><ele>833.0</ele><time>2026-03-28T14:54:30.512Z</time></trkpt><trkpt lat="42.1138537" lon="12.8478886"><ele>833.0</ele><time>2026-03-28T14:54:31.522Z</time></trkpt><trkpt lat="42.1139271" lon="12.8478392"><ele>833.0</ele><time>2026-03-28T14:54:32.518Z</time></trkpt><trkpt lat="42.1140035" lon="12.8478059"><ele>833.0</ele><time>2026-03-28T14:54:33.532Z</time></trkpt><trkpt lat="42.1141624" lon="12.8477754"><ele>830.3333333333334</ele><time>2026-03-28T14:54:35.526Z</time></trkpt><trkpt lat="42.1142488" lon="12.8477657"><ele>827.6666666666667</ele><time>2026-03-28T14:54:36.539Z</time></trkpt><trkpt lat="42.1143259" lon="12.847767"><ele>825.0</ele><time>2026-03-28T14:54:37.534Z</time></trkpt><trkpt lat="42.1144087" lon="12.84777"><ele>822.3333333333333</ele><time>2026-03-28T14:54:38.527Z</time></trkpt><trkpt lat="42.1144894" lon="12.8477801"><ele>819.6666666666666</ele><time>2026-03-28T14:54:39.518Z</time></trkpt><trkpt lat="42.114573" lon="12.847794"><ele>817.0</ele><time>2026-03-28T14:54:40.515Z</time></trkpt><trkpt lat="42.1146564" lon="12.8478058"><ele>816.9999999999999</ele><time>2026-03-28T14:54:41.532Z</time></trkpt><trkpt lat="42.1147388" lon="12.8478117"><ele>817.0</ele><time>2026-03-28T14:54:42.514Z</time></trkpt><trkpt lat="42.1148164" lon="12.8478259"><ele>817.0</ele><time>2026-03-28T14:54:43.537Z</time></trkpt><trkpt lat="42.1148943" lon="12.8478404"><ele>817.0</ele><time>2026-03-28T14:54:44.528Z</time></trkpt><trkpt lat="42.1149695" lon="12.8478578"><ele>816.9999999999999</ele><time>2026-03-28T14:54:45.52Z</time></trkpt><trkpt lat="42.1150402" lon="12.847869"><ele>817.0</ele><time>2026-03-28T14:54:46.52Z</time></trkpt><trkpt lat="42.1151037" lon="12.8478779"><ele>817.4999999999999</ele><time>2026-03-28T14:54:47.518Z</time></trkpt><trkpt lat="42.1152153" lon="12.8478499"><ele>818.0</ele><time>2026-03-28T14:54:49.507Z</time></trkpt><trkpt lat="42.1153215" lon="12.8478001"><ele>818.5</ele><time>2026-03-28T14:54:51.535Z</time></trkpt><trkpt lat="42.1153803" lon="12.8477605"><ele>819.0</ele><time>2026-03-28T14:54:52.516Z</time></trkpt><trkpt lat="42.1154474" lon="12.8477191"><ele>819.4999999999999</ele><time>2026-03-28T14:54:53.512Z</time></trkpt><trkpt lat="42.1155137" lon="12.8476783"><ele>820.0</ele><time>2026-03-28T14:54:54.524Z</time></trkpt><trkpt lat="42.1156655" lon="12.8476121"><ele>826.8333333333333</ele><time>2026-03-28T14:54:56.519Z</time></trkpt><trkpt lat="42.1157437" lon="12.8475849"><ele>833.6666666666666</ele><time>2026-03-28T14:54:57.526Z</time></trkpt><trkpt lat="42.115821" lon="12.8475622"><ele>840.5</ele><time>2026-03-28T14:54:58.52Z</time></trkpt><trkpt lat="42.1158969" lon="12.8475386"><ele>847.3333333333333</ele><time>2026-03-28T14:54:59.527Z</time></trkpt><trkpt lat="42.115972" lon="12.8475115"><ele>854.1666666666666</ele><time>2026-03-28T14:55:00.521Z</time></trkpt><trkpt lat="42.1160445" lon="12.8474799"><ele>861.0</ele><time>2026-03-28T14:55:01.522Z</time></trkpt><trkpt lat="42.1161174" lon="12.8474507"><ele>861.0</ele><time>2026-03-28T14:55:02.521Z</time></trkpt><trkpt lat="42.1161978" lon="12.8474383"><ele>861.0</ele><time>2026-03-28T14:55:03.502Z</time></trkpt><trkpt lat="42.1162773" lon="12.8474337"><ele>861.0</ele><time>2026-03-28T14:55:04.54Z</time></trkpt><trkpt lat="42.1163545" lon="12.8474311"><ele>861.0</ele><time>2026-03-28T14:55:05.517Z</time></trkpt><trkpt lat="42.1164391" lon="12.8474358"><ele>861.0</ele><time>2026-03-28T14:55:06.524Z</time></trkpt><trkpt lat="42.1165222" lon="12.8474412"><ele>861.0</ele><time>2026-03-28T14:55:07.514Z</time></trkpt><trkpt lat="42.1166041" lon="12.8474475"><ele>860.8333333333334</ele><time>2026-03-28T14:55:08.526Z</time></trkpt><trkpt lat="42.1166868" lon="12.8474556"><ele>860.6666666666667</ele><time>2026-03-28T14:55:09.53Z</time></trkpt><trkpt lat="42.1167743" lon="12.8474674"><ele>860.5</ele><time>2026-03-28T14:55:10.526Z</time></trkpt><trkpt lat="42.1168568" lon="12.8474752"><ele>860.3333333333334</ele><time>2026-03-28T14:55:11.533Z</time></trkpt><trkpt lat="42.1169318" lon="12.8474841"><ele>860.1666666666667</ele><time>2026-03-28T14:55:12.516Z</time></trkpt><trkpt lat="42.1170092" lon="12.8474944"><ele>860.0</ele><time>2026-03-28T14:55:13.522Z</time></trkpt><trkpt lat="42.117084" lon="12.8475074"><ele>860.0</ele><time>2026-03-28T14:55:14.504Z</time></trkpt><trkpt lat="42.1171552" lon="12.8475208"><ele>860.0</ele><time>2026-03-28T14:55:15.515Z</time></trkpt><trkpt lat="42.1172894" lon="12.8475455"><ele>860.0</ele><time>2026-03-28T14:55:17.504Z</time></trkpt><trkpt lat="42.1173527" lon="12.8475475"><ele>860.0</ele><time>2026-03-28T14:55:18.517Z</time></trkpt><trkpt lat="42.1174759" lon="12.8475484"><ele>860.0</ele><time>2026-03-28T14:55:20.513Z</time></trkpt><trkpt lat="42.1175829" lon="12.8475508"><ele>861.2</ele><time>2026-03-28T14:55:22.527Z</time></trkpt><trkpt lat="42.1176761" lon="12.8475531"><ele>862.4</ele><time>2026-03-28T14:55:24.522Z</time></trkpt><trkpt lat="42.1177851" lon="12.8475272"><ele>863.5999999999999</ele><time>2026-03-28T14:55:26.541Z</time></trkpt><trkpt lat="42.1178864" lon="12.8474791"><ele>864.8</ele><time>2026-03-28T14:55:28.528Z</time></trkpt><trkpt lat="42.1179885" lon="12.8474248"><ele>866.0</ele><time>2026-03-28T14:55:30.517Z</time></trkpt><trkpt lat="42.1180846" lon="12.8473719"><ele>866.0</ele><time>2026-03-28T14:55:32.522Z</time></trkpt><trkpt lat="42.118181" lon="12.8473024"><ele>866.0</ele><time>2026-03-28T14:55:34.54Z</time></trkpt><trkpt lat="42.1182396" lon="12.8472636"><ele>866.0</ele><time>2026-03-28T14:55:35.525Z</time></trkpt><trkpt lat="42.1182972" lon="12.8472291"><ele>866.0</ele><time>2026-03-28T14:55:36.521Z</time></trkpt><trkpt lat="42.1184889" lon="12.8470773"><ele>864.5999999999999</ele><time>2026-03-28T14:55:40.521Z</time></trkpt><trkpt lat="42.1185799" lon="12.8470144"><ele>863.1999999999999</ele><time>2026-03-28T14:55:42.53Z</time></trkpt><trkpt lat="42.1186719" lon="12.8469407"><ele>861.8000000000001</ele><time>2026-03-28T14:55:44.513Z</time></trkpt><trkpt lat="42.118783" lon="12.8468693"><ele>860.4000000000001</ele><time>2026-03-28T14:55:46.529Z</time></trkpt><trkpt lat="42.1188651" lon="12.8467861"><ele>859.0</ele><time>2026-03-28T14:55:48.53Z</time></trkpt><trkpt lat="42.1189271" lon="12.8466967"><ele>861.4999999999999</ele><time>2026-03-28T14:55:50.535Z</time></trkpt><trkpt lat="42.1189867" lon="12.8466266"><ele>864.0</ele><time>2026-03-28T14:55:53.284Z</time></trkpt><trkpt lat="42.1190632" lon="12.8464488"><ele>866.5</ele><time>2026-03-28T14:55:54.525Z</time></trkpt><trkpt lat="42.1191081" lon="12.8463719"><ele>869.0</ele><time>2026-03-28T14:55:55.541Z</time></trkpt><trkpt lat="42.1191539" lon="12.8463067"><ele>871.4999999999999</ele><time>2026-03-28T14:55:56.537Z</time></trkpt><trkpt lat="42.1192077" lon="12.8462517"><ele>874.0</ele><time>2026-03-28T14:55:57.52Z</time></trkpt><trkpt lat="42.119323" lon="12.846148"><ele>873.9999999999999</ele><time>2026-03-28T14:55:59.526Z</time></trkpt><trkpt lat="42.1193795" lon="12.8461039"><ele>874.0</ele><time>2026-03-28T14:56:00.514Z</time></trkpt><trkpt lat="42.1194332" lon="12.8460578"><ele>874.0</ele><time>2026-03-28T14:56:01.534Z</time></trkpt><trkpt lat="42.1195376" lon="12.8459737"><ele>874.0</ele><time>2026-03-28T14:56:03.511Z</time></trkpt><trkpt lat="42.1196519" lon="12.8459004"><ele>873.9999999999999</ele><time>2026-03-28T14:56:05.519Z</time></trkpt><trkpt lat="42.1197148" lon="12.8458683"><ele>874.0</ele><time>2026-03-28T14:56:06.518Z</time></trkpt><trkpt lat="42.1197799" lon="12.845839"><ele>876.1666666666666</ele><time>2026-03-28T14:56:07.527Z</time></trkpt><trkpt lat="42.1198418" lon="12.8457988"><ele>878.3333333333333</ele><time>2026-03-28T14:56:08.531Z</time></trkpt><trkpt lat="42.1199013" lon="12.8457628"><ele>880.5</ele><time>2026-03-28T14:56:09.523Z</time></trkpt><trkpt lat="42.1200155" lon="12.8456984"><ele>882.6666666666667</ele><time>2026-03-28T14:56:11.52Z</time></trkpt><trkpt lat="42.1200766" lon="12.8456597"><ele>884.8333333333334</ele><time>2026-03-28T14:56:12.519Z</time></trkpt><trkpt lat="42.1201339" lon="12.8456143"><ele>887.0</ele><time>2026-03-28T14:56:13.518Z</time></trkpt><trkpt lat="42.1201887" lon="12.845565"><ele>887.0</ele><time>2026-03-28T14:56:14.519Z</time></trkpt><trkpt lat="42.1202462" lon="12.8455152"><ele>887.0</ele><time>2026-03-28T14:56:15.515Z</time></trkpt><trkpt lat="42.1203032" lon="12.8454626"><ele>887.0</ele><time>2026-03-28T14:56:16.529Z</time></trkpt><trkpt lat="42.1203533" lon="12.8454095"><ele>887.0</ele><time>2026-03-28T14:56:17.515Z</time></trkpt><trkpt lat="42.1204481" lon="12.8453111"><ele>887.0</ele><time>2026-03-28T14:56:19.544Z</time></trkpt><trkpt lat="42.1206018" lon="12.8450805"><ele>887.4000000000001</ele><time>2026-03-28T14:56:23.529Z</time></trkpt><trkpt lat="42.1206712" lon="12.8449636"><ele>887.8000000000001</ele><time>2026-03-28T14:56:25.546Z</time></trkpt><trkpt lat="42.1207202" lon="12.8448488"><ele>888.2</ele><time>2026-03-28T14:56:27.528Z</time></trkpt><trkpt lat="42.1207465" lon="12.8447161"><ele>888.6</ele><time>2026-03-28T14:56:29.544Z</time></trkpt><trkpt lat="42.120739" lon="12.8445752"><ele>889.0</ele><time>2026-03-28T14:56:31.534Z</time></trkpt><trkpt lat="42.1207248" lon="12.8444179"><ele>891.3333333333333</ele><time>2026-03-28T14:56:33.54Z</time></trkpt><trkpt lat="42.1207203" lon="12.8442624"><ele>893.6666666666666</ele><time>2026-03-28T14:56:35.524Z</time></trkpt><trkpt lat="42.1207272" lon="12.8441721"><ele>896.0</ele><time>2026-03-28T14:56:36.544Z</time></trkpt><trkpt lat="42.1207496" lon="12.8440787"><ele>898.3333333333333</ele><time>2026-03-28T14:56:37.535Z</time></trkpt><trkpt lat="42.1207821" lon="12.8439908"><ele>900.6666666666666</ele><time>2026-03-28T14:56:38.535Z</time></trkpt><trkpt lat="42.1208272" lon="12.8439049"><ele>903.0</ele><time>2026-03-28T14:56:39.506Z</time></trkpt><trkpt lat="42.1208813" lon="12.8438144"><ele>903.0</ele><time>2026-03-28T14:56:40.529Z</time></trkpt><trkpt lat="42.1209868" lon="12.8436565"><ele>903.0</ele><time>2026-03-28T14:56:42.521Z</time></trkpt><trkpt lat="42.1210434" lon="12.8435774"><ele>903.0</ele><time>2026-03-28T14:56:43.54Z</time></trkpt><trkpt lat="42.1210956" lon="12.8434878"><ele>903.0</ele><time>2026-03-28T14:56:44.544Z</time></trkpt><trkpt lat="42.1211396" lon="12.8433927"><ele>903.0</ele><time>2026-03-28T14:56:45.539Z</time></trkpt><trkpt lat="42.1211694" lon="12.8432802"><ele>906.0</ele><time>2026-03-28T14:56:46.543Z</time></trkpt><trkpt lat="42.1211666" lon="12.843164"><ele>909.0</ele><time>2026-03-28T14:56:47.516Z</time></trkpt><trkpt lat="42.1211524" lon="12.8430454"><ele>912.0</ele><time>2026-03-28T14:56:48.525Z</time></trkpt><trkpt lat="42.1211306" lon="12.8429294"><ele>915.0</ele><time>2026-03-28T14:56:49.52Z</time></trkpt><trkpt lat="42.1211126" lon="12.8428248"><ele>918.0</ele><time>2026-03-28T14:56:50.531Z</time></trkpt><trkpt lat="42.121102" lon="12.8427287"><ele>921.0</ele><time>2026-03-28T14:56:51.54Z</time></trkpt><trkpt lat="42.1211096" lon="12.8426327"><ele>922.3333333333334</ele><time>2026-03-28T14:56:52.561Z</time></trkpt><trkpt lat="42.1211335" lon="12.8425412"><ele>923.6666666666667</ele><time>2026-03-28T14:56:53.524Z</time></trkpt><trkpt lat="42.1211613" lon="12.8424439"><ele>925.0</ele><time>2026-03-28T14:56:54.514Z</time></trkpt><trkpt lat="42.1211957" lon="12.8423334"><ele>926.3333333333334</ele><time>2026-03-28T14:56:55.526Z</time></trkpt><trkpt lat="42.121235" lon="12.8422145"><ele>927.6666666666667</ele><time>2026-03-28T14:56:56.534Z</time></trkpt><trkpt lat="42.1212683" lon="12.8420978"><ele>929.0</ele><time>2026-03-28T14:56:57.54Z</time></trkpt><trkpt lat="42.121305" lon="12.841986"><ele>929.0</ele><time>2026-03-28T14:56:58.543Z</time></trkpt><trkpt lat="42.121348" lon="12.8418821"><ele>929.0000000000001</ele><time>2026-03-28T14:56:59.511Z</time></trkpt><trkpt lat="42.1213917" lon="12.8417875"><ele>929.0000000000001</ele><time>2026-03-28T14:57:00.536Z</time></trkpt><trkpt lat="42.1214354" lon="12.8417024"><ele>929.0</ele><time>2026-03-28T14:57:01.508Z</time></trkpt><trkpt lat="42.1215422" lon="12.8415529"><ele>929.0</ele><time>2026-03-28T14:57:03.528Z</time></trkpt><trkpt lat="42.1216012" lon="12.8414768"><ele>924.3333333333334</ele><time>2026-03-28T14:57:04.52Z</time></trkpt><trkpt lat="42.1216601" lon="12.841401"><ele>919.6666666666667</ele><time>2026-03-28T14:57:05.533Z</time></trkpt><trkpt lat="42.1217112" lon="12.8413354"><ele>915.0</ele><time>2026-03-28T14:57:06.542Z</time></trkpt><trkpt lat="42.1217682" lon="12.8412166"><ele>910.3333333333333</ele><time>2026-03-28T14:57:08.534Z</time></trkpt><trkpt lat="42.1217616" lon="12.8411163"><ele>905.6666666666666</ele><time>2026-03-28T14:57:10.524Z</time></trkpt><trkpt lat="42.1216927" lon="12.8410368"><ele>901.0</ele><time>2026-03-28T14:57:13.534Z</time></trkpt><trkpt lat="42.1216009" lon="12.841059"><ele>901.0</ele><time>2026-03-28T14:57:16.522Z</time></trkpt><trkpt lat="42.1215214" lon="12.8411085"><ele>922.0</ele><time>2026-03-28T14:57:18.525Z</time></trkpt><trkpt lat="42.1214602" lon="12.8412176"><ele>922.0</ele><time>2026-03-28T14:57:20.546Z</time></trkpt><trkpt lat="42.1214174" lon="12.8412968"><ele>922.0</ele><time>2026-03-28T14:57:21.543Z</time></trkpt><trkpt lat="42.1213825" lon="12.8414224"><ele>922.0</ele><time>2026-03-28T14:57:23.54Z</time></trkpt></trkseg></trk></gpx>